<?xml version="1.0" encoding="UTF-8" standalone="no" ?>
<gpx xmlns="http://www.topografix.com/GPX/1/1" xmlns:xsi="http://www.w3.org/2001/XMLSchema-instance" xsi:schemaLocation="http://www.topografix.com/GPX/1/1 http://www.topografix.com/GPX/1/1/gpx.xsd" version="1.1" creator="VisuGPX - https://www.visugpx.com">
  <metadata>
    <name>j4, Aubrac, Saint-Chély d'Aubrac =&amp;gt; Laguiole</name>
    <desc><![CDATA[j4, Aubrac, Saint-Chély d'Aubrac => Laguiole.]]></desc>
  </metadata>
  <trk>
    <name><![CDATA[j4, Aubrac, Saint-Chély d'Aubrac =&gt; Laguiole_1]]></name>
    <extensions>
      <line xmlns="http://www.topografix.com/GPX/gpx_style/0/2">
        <color>0000FF</color>
        <width>4</width>
      </line>
    </extensions>
    <trkseg>
      <trkpt lat="44.59056" lon="2.92048">
        <ele>773.5</ele>
        <time>2021-06-01T06:06:40Z</time>
      </trkpt>
      <trkpt lat="44.59044" lon="2.92032">
        <ele>774.8</ele>
        <time>2021-06-01T06:07:11Z</time>
      </trkpt>
      <trkpt lat="44.59047" lon="2.92027">
        <ele>773.8</ele>
        <time>2021-06-01T06:07:41Z</time>
      </trkpt>
      <trkpt lat="44.59038" lon="2.91993">
        <ele>773</ele>
        <time>2021-06-01T06:08:11Z</time>
      </trkpt>
      <trkpt lat="44.59016" lon="2.92008">
        <ele>774.3</ele>
        <time>2021-06-01T06:08:42Z</time>
      </trkpt>
      <trkpt lat="44.59026" lon="2.92014">
        <ele>768.4</ele>
        <time>2021-06-01T06:09:13Z</time>
      </trkpt>
      <trkpt lat="44.59019" lon="2.92026">
        <ele>771</ele>
        <time>2021-06-01T06:09:44Z</time>
      </trkpt>
      <trkpt lat="44.59004" lon="2.92054">
        <ele>775.9</ele>
        <time>2021-06-01T06:10:14Z</time>
      </trkpt>
      <trkpt lat="44.59008" lon="2.92097">
        <ele>773.1</ele>
        <time>2021-06-01T06:10:45Z</time>
      </trkpt>
      <trkpt lat="44.59032" lon="2.92102">
        <ele>774.4</ele>
        <time>2021-06-01T06:11:15Z</time>
      </trkpt>
      <trkpt lat="44.59048" lon="2.92149">
        <ele>767.9</ele>
        <time>2021-06-01T06:11:45Z</time>
      </trkpt>
      <trkpt lat="44.59059" lon="2.92171">
        <ele>764.8</ele>
        <time>2021-06-01T06:12:15Z</time>
      </trkpt>
      <trkpt lat="44.59092" lon="2.92176">
        <ele>767.9</ele>
        <time>2021-06-01T06:12:46Z</time>
      </trkpt>
      <trkpt lat="44.59103" lon="2.9223">
        <ele>768.8</ele>
        <time>2021-06-01T06:13:17Z</time>
      </trkpt>
      <trkpt lat="44.59109" lon="2.92281">
        <ele>773.1</ele>
        <time>2021-06-01T06:13:47Z</time>
      </trkpt>
      <trkpt lat="44.59116" lon="2.92336">
        <ele>774</ele>
        <time>2021-06-01T06:14:17Z</time>
      </trkpt>
      <trkpt lat="44.5912" lon="2.92363">
        <ele>767.5</ele>
        <time>2021-06-01T06:14:48Z</time>
      </trkpt>
      <trkpt lat="44.59125" lon="2.92376">
        <ele>764.6</ele>
        <time>2021-06-01T06:15:18Z</time>
      </trkpt>
      <trkpt lat="44.59158" lon="2.92404">
        <ele>770.5</ele>
        <time>2021-06-01T06:15:48Z</time>
      </trkpt>
      <trkpt lat="44.59185" lon="2.92441">
        <ele>778.2</ele>
        <time>2021-06-01T06:16:19Z</time>
      </trkpt>
      <trkpt lat="44.59212" lon="2.92468">
        <ele>779.5</ele>
        <time>2021-06-01T06:16:49Z</time>
      </trkpt>
      <trkpt lat="44.59233" lon="2.92499">
        <ele>779.4</ele>
        <time>2021-06-01T06:17:21Z</time>
      </trkpt>
      <trkpt lat="44.59251" lon="2.92538">
        <ele>782.4</ele>
        <time>2021-06-01T06:17:51Z</time>
      </trkpt>
      <trkpt lat="44.59252" lon="2.92585">
        <ele>783.8</ele>
        <time>2021-06-01T06:18:21Z</time>
      </trkpt>
      <trkpt lat="44.59265" lon="2.92628">
        <ele>786.2</ele>
        <time>2021-06-01T06:18:52Z</time>
      </trkpt>
      <trkpt lat="44.59273" lon="2.92673">
        <ele>787.6</ele>
        <time>2021-06-01T06:19:22Z</time>
      </trkpt>
      <trkpt lat="44.59285" lon="2.92716">
        <ele>787.9</ele>
        <time>2021-06-01T06:19:54Z</time>
      </trkpt>
      <trkpt lat="44.59295" lon="2.92763">
        <ele>793.5</ele>
        <time>2021-06-01T06:20:24Z</time>
      </trkpt>
      <trkpt lat="44.59316" lon="2.92804">
        <ele>792.6</ele>
        <time>2021-06-01T06:20:55Z</time>
      </trkpt>
      <trkpt lat="44.59326" lon="2.92835">
        <ele>797</ele>
        <time>2021-06-01T06:21:25Z</time>
      </trkpt>
      <trkpt lat="44.59325" lon="2.92873">
        <ele>797.7</ele>
        <time>2021-06-01T06:21:56Z</time>
      </trkpt>
      <trkpt lat="44.59328" lon="2.92921">
        <ele>798.8</ele>
        <time>2021-06-01T06:22:27Z</time>
      </trkpt>
      <trkpt lat="44.5933" lon="2.92954">
        <ele>803.8</ele>
        <time>2021-06-01T06:22:57Z</time>
      </trkpt>
      <trkpt lat="44.59333" lon="2.92982">
        <ele>805.9</ele>
        <time>2021-06-01T06:23:27Z</time>
      </trkpt>
      <trkpt lat="44.59337" lon="2.92994">
        <ele>816.1</ele>
        <time>2021-06-01T06:24:19Z</time>
      </trkpt>
      <trkpt lat="44.59335" lon="2.93044">
        <ele>819.5</ele>
        <time>2021-06-01T06:24:49Z</time>
      </trkpt>
      <trkpt lat="44.59343" lon="2.93091">
        <ele>819.7</ele>
        <time>2021-06-01T06:25:20Z</time>
      </trkpt>
      <trkpt lat="44.59366" lon="2.9312">
        <ele>825.2</ele>
        <time>2021-06-01T06:25:51Z</time>
      </trkpt>
      <trkpt lat="44.5938" lon="2.93169">
        <ele>829.6</ele>
        <time>2021-06-01T06:26:21Z</time>
      </trkpt>
      <trkpt lat="44.59394" lon="2.93211">
        <ele>828.5</ele>
        <time>2021-06-01T06:26:52Z</time>
      </trkpt>
      <trkpt lat="44.59405" lon="2.93254">
        <ele>829.1</ele>
        <time>2021-06-01T06:27:23Z</time>
      </trkpt>
      <trkpt lat="44.59417" lon="2.93301">
        <ele>833.3</ele>
        <time>2021-06-01T06:27:53Z</time>
      </trkpt>
      <trkpt lat="44.59419" lon="2.9334">
        <ele>834</ele>
        <time>2021-06-01T06:28:23Z</time>
      </trkpt>
      <trkpt lat="44.59411" lon="2.93382">
        <ele>833.2</ele>
        <time>2021-06-01T06:28:54Z</time>
      </trkpt>
      <trkpt lat="44.59429" lon="2.93416">
        <ele>831.2</ele>
        <time>2021-06-01T06:29:25Z</time>
      </trkpt>
      <trkpt lat="44.59451" lon="2.93451">
        <ele>828.9</ele>
        <time>2021-06-01T06:29:55Z</time>
      </trkpt>
      <trkpt lat="44.59452" lon="2.93491">
        <ele>825.5</ele>
        <time>2021-06-01T06:30:27Z</time>
      </trkpt>
      <trkpt lat="44.59467" lon="2.93527">
        <ele>826.3</ele>
        <time>2021-06-01T06:30:58Z</time>
      </trkpt>
      <trkpt lat="44.59486" lon="2.93561">
        <ele>826.1</ele>
        <time>2021-06-01T06:31:28Z</time>
      </trkpt>
      <trkpt lat="44.59495" lon="2.9359">
        <ele>824.6</ele>
        <time>2021-06-01T06:31:58Z</time>
      </trkpt>
      <trkpt lat="44.59516" lon="2.93623">
        <ele>826.3</ele>
        <time>2021-06-01T06:32:29Z</time>
      </trkpt>
      <trkpt lat="44.59529" lon="2.93653">
        <ele>828.7</ele>
        <time>2021-06-01T06:33:01Z</time>
      </trkpt>
      <trkpt lat="44.59548" lon="2.93695">
        <ele>823.6</ele>
        <time>2021-06-01T06:33:31Z</time>
      </trkpt>
      <trkpt lat="44.59549" lon="2.93713">
        <ele>829.1</ele>
        <time>2021-06-01T06:34:01Z</time>
      </trkpt>
      <trkpt lat="44.59573" lon="2.93724">
        <ele>836.9</ele>
        <time>2021-06-01T06:34:31Z</time>
      </trkpt>
      <trkpt lat="44.59582" lon="2.9375">
        <ele>840.2</ele>
        <time>2021-06-01T06:35:02Z</time>
      </trkpt>
      <trkpt lat="44.59586" lon="2.93778">
        <ele>844.8</ele>
        <time>2021-06-01T06:35:33Z</time>
      </trkpt>
      <trkpt lat="44.59588" lon="2.93803">
        <ele>852.8</ele>
        <time>2021-06-01T06:36:03Z</time>
      </trkpt>
      <trkpt lat="44.5959" lon="2.93842">
        <ele>858.7</ele>
        <time>2021-06-01T06:36:34Z</time>
      </trkpt>
      <trkpt lat="44.59593" lon="2.9389">
        <ele>864</ele>
        <time>2021-06-01T06:37:05Z</time>
      </trkpt>
      <trkpt lat="44.59598" lon="2.93901">
        <ele>862.8</ele>
        <time>2021-06-01T06:37:41Z</time>
      </trkpt>
      <trkpt lat="44.59616" lon="2.93916">
        <ele>863.2</ele>
        <time>2021-06-01T06:38:11Z</time>
      </trkpt>
      <trkpt lat="44.59624" lon="2.93928">
        <ele>866.8</ele>
        <time>2021-06-01T06:38:42Z</time>
      </trkpt>
      <trkpt lat="44.5963" lon="2.93938">
        <ele>877.9</ele>
        <time>2021-06-01T06:40:10Z</time>
      </trkpt>
      <trkpt lat="44.59647" lon="2.93953">
        <ele>878.8</ele>
        <time>2021-06-01T06:40:40Z</time>
      </trkpt>
      <trkpt lat="44.59666" lon="2.93971">
        <ele>879.9</ele>
        <time>2021-06-01T06:41:11Z</time>
      </trkpt>
      <trkpt lat="44.59677" lon="2.93988">
        <ele>881.3</ele>
        <time>2021-06-01T06:41:42Z</time>
      </trkpt>
      <trkpt lat="44.59693" lon="2.93996">
        <ele>887.3</ele>
        <time>2021-06-01T06:42:12Z</time>
      </trkpt>
      <trkpt lat="44.59707" lon="2.9401">
        <ele>894</ele>
        <time>2021-06-01T06:42:43Z</time>
      </trkpt>
      <trkpt lat="44.59717" lon="2.94022">
        <ele>898</ele>
        <time>2021-06-01T06:43:15Z</time>
      </trkpt>
      <trkpt lat="44.59729" lon="2.94051">
        <ele>907.3</ele>
        <time>2021-06-01T06:43:45Z</time>
      </trkpt>
      <trkpt lat="44.59739" lon="2.94079">
        <ele>911.4</ele>
        <time>2021-06-01T06:44:16Z</time>
      </trkpt>
      <trkpt lat="44.59755" lon="2.94091">
        <ele>917.3</ele>
        <time>2021-06-01T06:44:47Z</time>
      </trkpt>
      <trkpt lat="44.59769" lon="2.9412">
        <ele>920.2</ele>
        <time>2021-06-01T06:45:17Z</time>
      </trkpt>
      <trkpt lat="44.59779" lon="2.94158">
        <ele>925.4</ele>
        <time>2021-06-01T06:45:47Z</time>
      </trkpt>
      <trkpt lat="44.59784" lon="2.94183">
        <ele>927.8</ele>
        <time>2021-06-01T06:46:18Z</time>
      </trkpt>
      <trkpt lat="44.5979" lon="2.94202">
        <ele>923.2</ele>
        <time>2021-06-01T06:46:49Z</time>
      </trkpt>
      <trkpt lat="44.59804" lon="2.94236">
        <ele>923.2</ele>
        <time>2021-06-01T06:47:21Z</time>
      </trkpt>
      <trkpt lat="44.59807" lon="2.94276">
        <ele>921</ele>
        <time>2021-06-01T06:47:51Z</time>
      </trkpt>
      <trkpt lat="44.59821" lon="2.94317">
        <ele>920.2</ele>
        <time>2021-06-01T06:48:22Z</time>
      </trkpt>
      <trkpt lat="44.59839" lon="2.94356">
        <ele>919.3</ele>
        <time>2021-06-01T06:48:52Z</time>
      </trkpt>
      <trkpt lat="44.59862" lon="2.94387">
        <ele>921.6</ele>
        <time>2021-06-01T06:49:23Z</time>
      </trkpt>
      <trkpt lat="44.59877" lon="2.94411">
        <ele>921.5</ele>
        <time>2021-06-01T06:49:53Z</time>
      </trkpt>
      <trkpt lat="44.59899" lon="2.94441">
        <ele>926.7</ele>
        <time>2021-06-01T06:50:23Z</time>
      </trkpt>
      <trkpt lat="44.59923" lon="2.94457">
        <ele>928.9</ele>
        <time>2021-06-01T06:50:54Z</time>
      </trkpt>
      <trkpt lat="44.59948" lon="2.94484">
        <ele>930.6</ele>
        <time>2021-06-01T06:51:25Z</time>
      </trkpt>
      <trkpt lat="44.59971" lon="2.94514">
        <ele>935.3</ele>
        <time>2021-06-01T06:51:57Z</time>
      </trkpt>
      <trkpt lat="44.59994" lon="2.94543">
        <ele>938.5</ele>
        <time>2021-06-01T06:52:27Z</time>
      </trkpt>
      <trkpt lat="44.60013" lon="2.94578">
        <ele>940.3</ele>
        <time>2021-06-01T06:52:57Z</time>
      </trkpt>
      <trkpt lat="44.60032" lon="2.94606">
        <ele>944.8</ele>
        <time>2021-06-01T06:53:28Z</time>
      </trkpt>
      <trkpt lat="44.60055" lon="2.94634">
        <ele>944.1</ele>
        <time>2021-06-01T06:53:58Z</time>
      </trkpt>
      <trkpt lat="44.60077" lon="2.94658">
        <ele>949.3</ele>
        <time>2021-06-01T06:54:28Z</time>
      </trkpt>
      <trkpt lat="44.6009" lon="2.9468">
        <ele>954.5</ele>
        <time>2021-06-01T06:54:59Z</time>
      </trkpt>
      <trkpt lat="44.60098" lon="2.94697">
        <ele>957.5</ele>
        <time>2021-06-01T06:55:30Z</time>
      </trkpt>
      <trkpt lat="44.60113" lon="2.9472">
        <ele>958.6</ele>
        <time>2021-06-01T06:56:00Z</time>
      </trkpt>
      <trkpt lat="44.60119" lon="2.9473">
        <ele>961.7</ele>
        <time>2021-06-01T06:56:39Z</time>
      </trkpt>
      <trkpt lat="44.60139" lon="2.94747">
        <ele>966.6</ele>
        <time>2021-06-01T06:57:09Z</time>
      </trkpt>
      <trkpt lat="44.60159" lon="2.94764">
        <ele>965.6</ele>
        <time>2021-06-01T06:57:39Z</time>
      </trkpt>
      <trkpt lat="44.60153" lon="2.9478">
        <ele>967.4</ele>
        <time>2021-06-01T06:58:10Z</time>
      </trkpt>
      <trkpt lat="44.60153" lon="2.94808">
        <ele>969</ele>
        <time>2021-06-01T06:58:40Z</time>
      </trkpt>
      <trkpt lat="44.60136" lon="2.94807">
        <ele>965.4</ele>
        <time>2021-06-01T06:59:10Z</time>
      </trkpt>
      <trkpt lat="44.60116" lon="2.94812">
        <ele>966.7</ele>
        <time>2021-06-01T06:59:41Z</time>
      </trkpt>
      <trkpt lat="44.60106" lon="2.94818">
        <ele>967.7</ele>
        <time>2021-06-01T07:00:11Z</time>
      </trkpt>
      <trkpt lat="44.60097" lon="2.94823">
        <ele>968.5</ele>
        <time>2021-06-01T07:02:00Z</time>
      </trkpt>
      <trkpt lat="44.60075" lon="2.94826">
        <ele>969.2</ele>
        <time>2021-06-01T07:02:31Z</time>
      </trkpt>
      <trkpt lat="44.60046" lon="2.94838">
        <ele>972.4</ele>
        <time>2021-06-01T07:03:02Z</time>
      </trkpt>
      <trkpt lat="44.60029" lon="2.94843">
        <ele>976.1</ele>
        <time>2021-06-01T07:03:33Z</time>
      </trkpt>
      <trkpt lat="44.60018" lon="2.94859">
        <ele>979.9</ele>
        <time>2021-06-01T07:04:03Z</time>
      </trkpt>
      <trkpt lat="44.59996" lon="2.94876">
        <ele>987.4</ele>
        <time>2021-06-01T07:04:33Z</time>
      </trkpt>
      <trkpt lat="44.5999" lon="2.9489">
        <ele>992</ele>
        <time>2021-06-01T07:05:03Z</time>
      </trkpt>
      <trkpt lat="44.5999" lon="2.94903">
        <ele>999.4</ele>
        <time>2021-06-01T07:07:55Z</time>
      </trkpt>
      <trkpt lat="44.59982" lon="2.94921">
        <ele>997.5</ele>
        <time>2021-06-01T07:08:27Z</time>
      </trkpt>
      <trkpt lat="44.59998" lon="2.94942">
        <ele>1000.1</ele>
        <time>2021-06-01T07:08:57Z</time>
      </trkpt>
      <trkpt lat="44.6002" lon="2.94962">
        <ele>1002.4</ele>
        <time>2021-06-01T07:09:27Z</time>
      </trkpt>
      <trkpt lat="44.60041" lon="2.94981">
        <ele>1006.8</ele>
        <time>2021-06-01T07:09:58Z</time>
      </trkpt>
      <trkpt lat="44.60065" lon="2.94995">
        <ele>1010</ele>
        <time>2021-06-01T07:10:29Z</time>
      </trkpt>
      <trkpt lat="44.60089" lon="2.95017">
        <ele>1011.6</ele>
        <time>2021-06-01T07:10:59Z</time>
      </trkpt>
      <trkpt lat="44.60107" lon="2.95041">
        <ele>1012.9</ele>
        <time>2021-06-01T07:11:30Z</time>
      </trkpt>
      <trkpt lat="44.60109" lon="2.95054">
        <ele>1007.8</ele>
        <time>2021-06-01T07:12:25Z</time>
      </trkpt>
      <trkpt lat="44.60122" lon="2.95086">
        <ele>1011.7</ele>
        <time>2021-06-01T07:12:56Z</time>
      </trkpt>
      <trkpt lat="44.60135" lon="2.95108">
        <ele>1016.7</ele>
        <time>2021-06-01T07:13:27Z</time>
      </trkpt>
      <trkpt lat="44.60135" lon="2.95141">
        <ele>1022.8</ele>
        <time>2021-06-01T07:13:57Z</time>
      </trkpt>
      <trkpt lat="44.6014" lon="2.95182">
        <ele>1027.3</ele>
        <time>2021-06-01T07:14:28Z</time>
      </trkpt>
      <trkpt lat="44.60155" lon="2.95185">
        <ele>1027.7</ele>
        <time>2021-06-01T07:14:59Z</time>
      </trkpt>
      <trkpt lat="44.6017" lon="2.95213">
        <ele>1028.9</ele>
        <time>2021-06-01T07:15:31Z</time>
      </trkpt>
      <trkpt lat="44.6016" lon="2.95252">
        <ele>1030.9</ele>
        <time>2021-06-01T07:16:01Z</time>
      </trkpt>
      <trkpt lat="44.60169" lon="2.95249">
        <ele>1034.7</ele>
        <time>2021-06-01T07:18:12Z</time>
      </trkpt>
      <trkpt lat="44.60196" lon="2.95233">
        <ele>1033.8</ele>
        <time>2021-06-01T07:18:42Z</time>
      </trkpt>
      <trkpt lat="44.60218" lon="2.95206">
        <ele>1037.9</ele>
        <time>2021-06-01T07:19:13Z</time>
      </trkpt>
      <trkpt lat="44.60229" lon="2.95186">
        <ele>1039.8</ele>
        <time>2021-06-01T07:19:43Z</time>
      </trkpt>
      <trkpt lat="44.60238" lon="2.95181">
        <ele>1040.7</ele>
        <time>2021-06-01T07:20:21Z</time>
      </trkpt>
      <trkpt lat="44.6027" lon="2.95171">
        <ele>1045.6</ele>
        <time>2021-06-01T07:20:52Z</time>
      </trkpt>
      <trkpt lat="44.60258" lon="2.95185">
        <ele>1048</ele>
        <time>2021-06-01T07:21:22Z</time>
      </trkpt>
      <trkpt lat="44.60236" lon="2.95213">
        <ele>1049.6</ele>
        <time>2021-06-01T07:21:52Z</time>
      </trkpt>
      <trkpt lat="44.60237" lon="2.95241">
        <ele>1053</ele>
        <time>2021-06-01T07:22:22Z</time>
      </trkpt>
      <trkpt lat="44.60255" lon="2.95255">
        <ele>1058.1</ele>
        <time>2021-06-01T07:22:52Z</time>
      </trkpt>
      <trkpt lat="44.60262" lon="2.95271">
        <ele>1061.3</ele>
        <time>2021-06-01T07:23:22Z</time>
      </trkpt>
      <trkpt lat="44.60274" lon="2.95298">
        <ele>1063.7</ele>
        <time>2021-06-01T07:23:53Z</time>
      </trkpt>
      <trkpt lat="44.60278" lon="2.95326">
        <ele>1068.9</ele>
        <time>2021-06-01T07:24:23Z</time>
      </trkpt>
      <trkpt lat="44.60282" lon="2.95338">
        <ele>1074</ele>
        <time>2021-06-01T07:26:33Z</time>
      </trkpt>
      <trkpt lat="44.60288" lon="2.95381">
        <ele>1074.3</ele>
        <time>2021-06-01T07:27:03Z</time>
      </trkpt>
      <trkpt lat="44.60283" lon="2.95393">
        <ele>1069</ele>
        <time>2021-06-01T07:27:53Z</time>
      </trkpt>
      <trkpt lat="44.60287" lon="2.9538">
        <ele>1068.3</ele>
        <time>2021-06-01T07:30:43Z</time>
      </trkpt>
      <trkpt lat="44.60284" lon="2.95394">
        <ele>1070.9</ele>
        <time>2021-06-01T07:32:00Z</time>
      </trkpt>
      <trkpt lat="44.60301" lon="2.95434">
        <ele>1069.5</ele>
        <time>2021-06-01T07:32:30Z</time>
      </trkpt>
      <trkpt lat="44.60318" lon="2.95477">
        <ele>1068.5</ele>
        <time>2021-06-01T07:33:00Z</time>
      </trkpt>
      <trkpt lat="44.60339" lon="2.95524">
        <ele>1066.9</ele>
        <time>2021-06-01T07:33:30Z</time>
      </trkpt>
      <trkpt lat="44.60367" lon="2.95549">
        <ele>1065</ele>
        <time>2021-06-01T07:34:01Z</time>
      </trkpt>
      <trkpt lat="44.60392" lon="2.95564">
        <ele>1066.4</ele>
        <time>2021-06-01T07:34:32Z</time>
      </trkpt>
      <trkpt lat="44.60417" lon="2.9557">
        <ele>1072.8</ele>
        <time>2021-06-01T07:35:03Z</time>
      </trkpt>
      <trkpt lat="44.6042" lon="2.95547">
        <ele>1075.4</ele>
        <time>2021-06-01T07:35:34Z</time>
      </trkpt>
      <trkpt lat="44.60406" lon="2.95523">
        <ele>1082.4</ele>
        <time>2021-06-01T07:36:04Z</time>
      </trkpt>
      <trkpt lat="44.60399" lon="2.95496">
        <ele>1088.4</ele>
        <time>2021-06-01T07:36:35Z</time>
      </trkpt>
      <trkpt lat="44.60418" lon="2.95478">
        <ele>1093</ele>
        <time>2021-06-01T07:37:05Z</time>
      </trkpt>
      <trkpt lat="44.60446" lon="2.95476">
        <ele>1096.3</ele>
        <time>2021-06-01T07:37:36Z</time>
      </trkpt>
      <trkpt lat="44.6047" lon="2.955">
        <ele>1099.3</ele>
        <time>2021-06-01T07:38:07Z</time>
      </trkpt>
      <trkpt lat="44.60497" lon="2.95515">
        <ele>1099</ele>
        <time>2021-06-01T07:38:37Z</time>
      </trkpt>
      <trkpt lat="44.60526" lon="2.95528">
        <ele>1098.4</ele>
        <time>2021-06-01T07:39:07Z</time>
      </trkpt>
      <trkpt lat="44.60551" lon="2.9554">
        <ele>1102.3</ele>
        <time>2021-06-01T07:39:37Z</time>
      </trkpt>
      <trkpt lat="44.60555" lon="2.9558">
        <ele>1108</ele>
        <time>2021-06-01T07:40:09Z</time>
      </trkpt>
      <trkpt lat="44.60553" lon="2.95619">
        <ele>1115.7</ele>
        <time>2021-06-01T07:40:39Z</time>
      </trkpt>
      <trkpt lat="44.60571" lon="2.95646">
        <ele>1121.7</ele>
        <time>2021-06-01T07:41:10Z</time>
      </trkpt>
      <trkpt lat="44.60592" lon="2.95664">
        <ele>1122.3</ele>
        <time>2021-06-01T07:41:40Z</time>
      </trkpt>
      <trkpt lat="44.60619" lon="2.95685">
        <ele>1125.1</ele>
        <time>2021-06-01T07:42:11Z</time>
      </trkpt>
      <trkpt lat="44.60644" lon="2.95702">
        <ele>1126.7</ele>
        <time>2021-06-01T07:42:41Z</time>
      </trkpt>
      <trkpt lat="44.6066" lon="2.95712">
        <ele>1130.9</ele>
        <time>2021-06-01T07:43:13Z</time>
      </trkpt>
      <trkpt lat="44.6069" lon="2.95727">
        <ele>1133.5</ele>
        <time>2021-06-01T07:43:43Z</time>
      </trkpt>
      <trkpt lat="44.60709" lon="2.95728">
        <ele>1136</ele>
        <time>2021-06-01T07:44:13Z</time>
      </trkpt>
      <trkpt lat="44.60741" lon="2.95739">
        <ele>1138.5</ele>
        <time>2021-06-01T07:44:43Z</time>
      </trkpt>
      <trkpt lat="44.60752" lon="2.9574">
        <ele>1138.9</ele>
        <time>2021-06-01T07:45:15Z</time>
      </trkpt>
      <trkpt lat="44.60757" lon="2.95751">
        <ele>1143.2</ele>
        <time>2021-06-01T07:47:17Z</time>
      </trkpt>
      <trkpt lat="44.60776" lon="2.9579">
        <ele>1146</ele>
        <time>2021-06-01T07:47:48Z</time>
      </trkpt>
      <trkpt lat="44.6079" lon="2.95833">
        <ele>1146.5</ele>
        <time>2021-06-01T07:48:18Z</time>
      </trkpt>
      <trkpt lat="44.60816" lon="2.9586">
        <ele>1147.7</ele>
        <time>2021-06-01T07:48:49Z</time>
      </trkpt>
      <trkpt lat="44.60826" lon="2.95863">
        <ele>1148.1</ele>
        <time>2021-06-01T07:50:11Z</time>
      </trkpt>
      <trkpt lat="44.60856" lon="2.95887">
        <ele>1149.2</ele>
        <time>2021-06-01T07:50:42Z</time>
      </trkpt>
      <trkpt lat="44.60881" lon="2.95901">
        <ele>1150.2</ele>
        <time>2021-06-01T07:51:13Z</time>
      </trkpt>
      <trkpt lat="44.60906" lon="2.95934">
        <ele>1151.7</ele>
        <time>2021-06-01T07:51:45Z</time>
      </trkpt>
      <trkpt lat="44.60916" lon="2.95936">
        <ele>1150.8</ele>
        <time>2021-06-01T07:52:16Z</time>
      </trkpt>
      <trkpt lat="44.60925" lon="2.95941">
        <ele>1153.7</ele>
        <time>2021-06-01T07:52:47Z</time>
      </trkpt>
      <trkpt lat="44.60949" lon="2.95919">
        <ele>1156</ele>
        <time>2021-06-01T07:53:18Z</time>
      </trkpt>
      <trkpt lat="44.6098" lon="2.95889">
        <ele>1156.4</ele>
        <time>2021-06-01T07:53:49Z</time>
      </trkpt>
      <trkpt lat="44.60988" lon="2.9588">
        <ele>1159</ele>
        <time>2021-06-01T07:54:36Z</time>
      </trkpt>
      <trkpt lat="44.61016" lon="2.9584">
        <ele>1162.2</ele>
        <time>2021-06-01T07:55:07Z</time>
      </trkpt>
      <trkpt lat="44.6105" lon="2.95812">
        <ele>1166.1</ele>
        <time>2021-06-01T07:55:37Z</time>
      </trkpt>
      <trkpt lat="44.61083" lon="2.95794">
        <ele>1164.1</ele>
        <time>2021-06-01T07:56:07Z</time>
      </trkpt>
      <trkpt lat="44.61101" lon="2.95749">
        <ele>1164.4</ele>
        <time>2021-06-01T07:56:39Z</time>
      </trkpt>
      <trkpt lat="44.61116" lon="2.95699">
        <ele>1166.4</ele>
        <time>2021-06-01T07:57:09Z</time>
      </trkpt>
      <trkpt lat="44.6115" lon="2.95678">
        <ele>1168.5</ele>
        <time>2021-06-01T07:57:39Z</time>
      </trkpt>
      <trkpt lat="44.61188" lon="2.95667">
        <ele>1169.1</ele>
        <time>2021-06-01T07:58:10Z</time>
      </trkpt>
      <trkpt lat="44.61229" lon="2.95659">
        <ele>1171.8</ele>
        <time>2021-06-01T07:58:41Z</time>
      </trkpt>
      <trkpt lat="44.61266" lon="2.95653">
        <ele>1175.1</ele>
        <time>2021-06-01T07:59:12Z</time>
      </trkpt>
      <trkpt lat="44.61302" lon="2.95634">
        <ele>1175.7</ele>
        <time>2021-06-01T07:59:43Z</time>
      </trkpt>
      <trkpt lat="44.61337" lon="2.95609">
        <ele>1178.5</ele>
        <time>2021-06-01T08:00:14Z</time>
      </trkpt>
      <trkpt lat="44.61374" lon="2.95588">
        <ele>1180.7</ele>
        <time>2021-06-01T08:00:44Z</time>
      </trkpt>
      <trkpt lat="44.61411" lon="2.9557">
        <ele>1176.8</ele>
        <time>2021-06-01T08:01:14Z</time>
      </trkpt>
      <trkpt lat="44.61451" lon="2.95553">
        <ele>1178.8</ele>
        <time>2021-06-01T08:01:45Z</time>
      </trkpt>
      <trkpt lat="44.6149" lon="2.95535">
        <ele>1179.9</ele>
        <time>2021-06-01T08:02:15Z</time>
      </trkpt>
      <trkpt lat="44.61529" lon="2.95516">
        <ele>1178.3</ele>
        <time>2021-06-01T08:02:46Z</time>
      </trkpt>
      <trkpt lat="44.61566" lon="2.95498">
        <ele>1181</ele>
        <time>2021-06-01T08:03:17Z</time>
      </trkpt>
      <trkpt lat="44.61604" lon="2.95481">
        <ele>1184.8</ele>
        <time>2021-06-01T08:03:48Z</time>
      </trkpt>
      <trkpt lat="44.61645" lon="2.95463">
        <ele>1185.2</ele>
        <time>2021-06-01T08:04:18Z</time>
      </trkpt>
      <trkpt lat="44.61684" lon="2.95446">
        <ele>1182.6</ele>
        <time>2021-06-01T08:04:48Z</time>
      </trkpt>
      <trkpt lat="44.61716" lon="2.95418">
        <ele>1183.5</ele>
        <time>2021-06-01T08:05:20Z</time>
      </trkpt>
      <trkpt lat="44.61742" lon="2.95382">
        <ele>1185.3</ele>
        <time>2021-06-01T08:05:50Z</time>
      </trkpt>
      <trkpt lat="44.61765" lon="2.95353">
        <ele>1186</ele>
        <time>2021-06-01T08:06:21Z</time>
      </trkpt>
      <trkpt lat="44.61796" lon="2.95314">
        <ele>1183.9</ele>
        <time>2021-06-01T08:06:51Z</time>
      </trkpt>
      <trkpt lat="44.61829" lon="2.95303">
        <ele>1187.5</ele>
        <time>2021-06-01T08:07:21Z</time>
      </trkpt>
      <trkpt lat="44.61861" lon="2.95285">
        <ele>1190.1</ele>
        <time>2021-06-01T08:07:52Z</time>
      </trkpt>
      <trkpt lat="44.6187" lon="2.95277">
        <ele>1190.2</ele>
        <time>2021-06-01T08:08:22Z</time>
      </trkpt>
      <trkpt lat="44.6188" lon="2.95278">
        <ele>1188.9</ele>
        <time>2021-06-01T08:09:44Z</time>
      </trkpt>
      <trkpt lat="44.61914" lon="2.95244">
        <ele>1193.2</ele>
        <time>2021-06-01T08:10:15Z</time>
      </trkpt>
      <trkpt lat="44.61946" lon="2.95214">
        <ele>1191.3</ele>
        <time>2021-06-01T08:10:45Z</time>
      </trkpt>
      <trkpt lat="44.61973" lon="2.95179">
        <ele>1191.8</ele>
        <time>2021-06-01T08:11:16Z</time>
      </trkpt>
      <trkpt lat="44.61987" lon="2.95207">
        <ele>1186.1</ele>
        <time>2021-06-01T08:11:46Z</time>
      </trkpt>
      <trkpt lat="44.62016" lon="2.95227">
        <ele>1178.2</ele>
        <time>2021-06-01T08:12:16Z</time>
      </trkpt>
      <trkpt lat="44.62033" lon="2.95247">
        <ele>1175.9</ele>
        <time>2021-06-01T08:12:47Z</time>
      </trkpt>
      <trkpt lat="44.62057" lon="2.95283">
        <ele>1169.9</ele>
        <time>2021-06-01T08:13:18Z</time>
      </trkpt>
      <trkpt lat="44.62063" lon="2.95314">
        <ele>1171.2</ele>
        <time>2021-06-01T08:13:49Z</time>
      </trkpt>
      <trkpt lat="44.62053" lon="2.95313">
        <ele>1173.6</ele>
        <time>2021-06-01T08:14:35Z</time>
      </trkpt>
      <trkpt lat="44.62034" lon="2.95303">
        <ele>1175.5</ele>
        <time>2021-06-01T08:15:05Z</time>
      </trkpt>
      <trkpt lat="44.62023" lon="2.95294">
        <ele>1178.4</ele>
        <time>2021-06-01T08:15:36Z</time>
      </trkpt>
      <trkpt lat="44.62032" lon="2.95328">
        <ele>1178.6</ele>
        <time>2021-06-01T08:16:07Z</time>
      </trkpt>
      <trkpt lat="44.62043" lon="2.95375">
        <ele>1174.3</ele>
        <time>2021-06-01T08:16:38Z</time>
      </trkpt>
      <trkpt lat="44.62049" lon="2.95416">
        <ele>1168.1</ele>
        <time>2021-06-01T08:17:09Z</time>
      </trkpt>
      <trkpt lat="44.62048" lon="2.95403">
        <ele>1178.7</ele>
        <time>2021-06-01T08:19:02Z</time>
      </trkpt>
      <trkpt lat="44.62048" lon="2.95389">
        <ele>1181.5</ele>
        <time>2021-06-01T08:22:13Z</time>
      </trkpt>
      <trkpt lat="44.6204" lon="2.95342">
        <ele>1180.8</ele>
        <time>2021-06-01T08:22:45Z</time>
      </trkpt>
      <trkpt lat="44.62019" lon="2.95301">
        <ele>1182.5</ele>
        <time>2021-06-01T08:23:15Z</time>
      </trkpt>
      <trkpt lat="44.62001" lon="2.95256">
        <ele>1181.9</ele>
        <time>2021-06-01T08:23:45Z</time>
      </trkpt>
      <trkpt lat="44.62013" lon="2.95225">
        <ele>1179.9</ele>
        <time>2021-06-01T08:24:15Z</time>
      </trkpt>
      <trkpt lat="44.62039" lon="2.95257">
        <ele>1176.9</ele>
        <time>2021-06-01T08:24:46Z</time>
      </trkpt>
      <trkpt lat="44.62064" lon="2.95292">
        <ele>1169.4</ele>
        <time>2021-06-01T08:25:16Z</time>
      </trkpt>
      <trkpt lat="44.62089" lon="2.95335">
        <ele>1168.2</ele>
        <time>2021-06-01T08:25:46Z</time>
      </trkpt>
      <trkpt lat="44.62119" lon="2.95365">
        <ele>1164.4</ele>
        <time>2021-06-01T08:26:17Z</time>
      </trkpt>
      <trkpt lat="44.62128" lon="2.95363">
        <ele>1173</ele>
        <time>2021-06-01T08:27:46Z</time>
      </trkpt>
      <trkpt lat="44.62125" lon="2.95376">
        <ele>1175.6</ele>
        <time>2021-06-01T08:28:48Z</time>
      </trkpt>
      <trkpt lat="44.62134" lon="2.95373">
        <ele>1172.2</ele>
        <time>2021-06-01T08:29:52Z</time>
      </trkpt>
      <trkpt lat="44.62153" lon="2.95385">
        <ele>1166.1</ele>
        <time>2021-06-01T08:30:23Z</time>
      </trkpt>
      <trkpt lat="44.62188" lon="2.95404">
        <ele>1159.4</ele>
        <time>2021-06-01T08:30:54Z</time>
      </trkpt>
      <trkpt lat="44.62207" lon="2.95449">
        <ele>1151.5</ele>
        <time>2021-06-01T08:31:25Z</time>
      </trkpt>
      <trkpt lat="44.62227" lon="2.95493">
        <ele>1148.2</ele>
        <time>2021-06-01T08:31:56Z</time>
      </trkpt>
      <trkpt lat="44.62247" lon="2.95528">
        <ele>1142.3</ele>
        <time>2021-06-01T08:32:27Z</time>
      </trkpt>
      <trkpt lat="44.62265" lon="2.95571">
        <ele>1140.1</ele>
        <time>2021-06-01T08:32:58Z</time>
      </trkpt>
      <trkpt lat="44.62286" lon="2.95615">
        <ele>1133.6</ele>
        <time>2021-06-01T08:33:28Z</time>
      </trkpt>
      <trkpt lat="44.62309" lon="2.95644">
        <ele>1127.6</ele>
        <time>2021-06-01T08:33:58Z</time>
      </trkpt>
      <trkpt lat="44.62336" lon="2.95677">
        <ele>1123.5</ele>
        <time>2021-06-01T08:34:29Z</time>
      </trkpt>
      <trkpt lat="44.62353" lon="2.95689">
        <ele>1124.6</ele>
        <time>2021-06-01T08:35:00Z</time>
      </trkpt>
      <trkpt lat="44.62368" lon="2.95692">
        <ele>1136.6</ele>
        <time>2021-06-01T08:35:31Z</time>
      </trkpt>
      <trkpt lat="44.62387" lon="2.95701">
        <ele>1137.8</ele>
        <time>2021-06-01T08:36:01Z</time>
      </trkpt>
      <trkpt lat="44.62424" lon="2.95713">
        <ele>1134.9</ele>
        <time>2021-06-01T08:36:33Z</time>
      </trkpt>
      <trkpt lat="44.62458" lon="2.95732">
        <ele>1132.9</ele>
        <time>2021-06-01T08:37:03Z</time>
      </trkpt>
      <trkpt lat="44.62489" lon="2.9573">
        <ele>1128.7</ele>
        <time>2021-06-01T08:37:33Z</time>
      </trkpt>
      <trkpt lat="44.6252" lon="2.95699">
        <ele>1125.3</ele>
        <time>2021-06-01T08:38:04Z</time>
      </trkpt>
      <trkpt lat="44.62525" lon="2.95658">
        <ele>1118.7</ele>
        <time>2021-06-01T08:38:34Z</time>
      </trkpt>
      <trkpt lat="44.62516" lon="2.95617">
        <ele>1111.5</ele>
        <time>2021-06-01T08:39:06Z</time>
      </trkpt>
      <trkpt lat="44.62511" lon="2.9557">
        <ele>1104.3</ele>
        <time>2021-06-01T08:39:37Z</time>
      </trkpt>
      <trkpt lat="44.62535" lon="2.95528">
        <ele>1105.4</ele>
        <time>2021-06-01T08:40:07Z</time>
      </trkpt>
      <trkpt lat="44.62528" lon="2.95497">
        <ele>1099.3</ele>
        <time>2021-06-01T08:40:39Z</time>
      </trkpt>
      <trkpt lat="44.62526" lon="2.95464">
        <ele>1103.8</ele>
        <time>2021-06-01T08:41:09Z</time>
      </trkpt>
      <trkpt lat="44.6252" lon="2.9542">
        <ele>1106.7</ele>
        <time>2021-06-01T08:41:39Z</time>
      </trkpt>
      <trkpt lat="44.62526" lon="2.95363">
        <ele>1109.2</ele>
        <time>2021-06-01T08:42:10Z</time>
      </trkpt>
      <trkpt lat="44.62524" lon="2.9531">
        <ele>1109.2</ele>
        <time>2021-06-01T08:42:41Z</time>
      </trkpt>
      <trkpt lat="44.62536" lon="2.95261">
        <ele>1111.8</ele>
        <time>2021-06-01T08:43:12Z</time>
      </trkpt>
      <trkpt lat="44.62548" lon="2.95206">
        <ele>1107.8</ele>
        <time>2021-06-01T08:43:43Z</time>
      </trkpt>
      <trkpt lat="44.62568" lon="2.9516">
        <ele>1107.1</ele>
        <time>2021-06-01T08:44:13Z</time>
      </trkpt>
      <trkpt lat="44.62595" lon="2.95139">
        <ele>1099.7</ele>
        <time>2021-06-01T08:44:43Z</time>
      </trkpt>
      <trkpt lat="44.6263" lon="2.95128">
        <ele>1097.7</ele>
        <time>2021-06-01T08:45:15Z</time>
      </trkpt>
      <trkpt lat="44.62651" lon="2.95108">
        <ele>1103.3</ele>
        <time>2021-06-01T08:45:45Z</time>
      </trkpt>
      <trkpt lat="44.62684" lon="2.95083">
        <ele>1098.7</ele>
        <time>2021-06-01T08:46:15Z</time>
      </trkpt>
      <trkpt lat="44.62717" lon="2.95065">
        <ele>1095.2</ele>
        <time>2021-06-01T08:46:46Z</time>
      </trkpt>
      <trkpt lat="44.62751" lon="2.95037">
        <ele>1091.4</ele>
        <time>2021-06-01T08:47:16Z</time>
      </trkpt>
      <trkpt lat="44.62762" lon="2.95017">
        <ele>1091.4</ele>
        <time>2021-06-01T08:47:47Z</time>
      </trkpt>
      <trkpt lat="44.6276" lon="2.94977">
        <ele>1095.2</ele>
        <time>2021-06-01T08:48:17Z</time>
      </trkpt>
      <trkpt lat="44.62762" lon="2.94932">
        <ele>1097.8</ele>
        <time>2021-06-01T08:48:48Z</time>
      </trkpt>
      <trkpt lat="44.6275" lon="2.9489">
        <ele>1098</ele>
        <time>2021-06-01T08:49:19Z</time>
      </trkpt>
      <trkpt lat="44.62743" lon="2.94872">
        <ele>1096.8</ele>
        <time>2021-06-01T08:49:51Z</time>
      </trkpt>
      <trkpt lat="44.62738" lon="2.94839">
        <ele>1094</ele>
        <time>2021-06-01T08:50:21Z</time>
      </trkpt>
      <trkpt lat="44.62738" lon="2.94826">
        <ele>1096.8</ele>
        <time>2021-06-01T08:50:51Z</time>
      </trkpt>
      <trkpt lat="44.6274" lon="2.94813">
        <ele>1096.7</ele>
        <time>2021-06-01T08:52:46Z</time>
      </trkpt>
      <trkpt lat="44.62747" lon="2.94765">
        <ele>1096.2</ele>
        <time>2021-06-01T08:53:16Z</time>
      </trkpt>
      <trkpt lat="44.6276" lon="2.94735">
        <ele>1097.5</ele>
        <time>2021-06-01T08:53:46Z</time>
      </trkpt>
      <trkpt lat="44.62769" lon="2.94682">
        <ele>1097.2</ele>
        <time>2021-06-01T08:54:16Z</time>
      </trkpt>
      <trkpt lat="44.62777" lon="2.94648">
        <ele>1096.8</ele>
        <time>2021-06-01T08:54:47Z</time>
      </trkpt>
      <trkpt lat="44.62789" lon="2.94618">
        <ele>1096</ele>
        <time>2021-06-01T08:55:18Z</time>
      </trkpt>
      <trkpt lat="44.62792" lon="2.94581">
        <ele>1096.4</ele>
        <time>2021-06-01T08:55:48Z</time>
      </trkpt>
      <trkpt lat="44.62804" lon="2.94538">
        <ele>1096.7</ele>
        <time>2021-06-01T08:56:18Z</time>
      </trkpt>
      <trkpt lat="44.6283" lon="2.94508">
        <ele>1094.5</ele>
        <time>2021-06-01T08:56:48Z</time>
      </trkpt>
      <trkpt lat="44.62834" lon="2.94486">
        <ele>1091.8</ele>
        <time>2021-06-01T08:57:19Z</time>
      </trkpt>
      <trkpt lat="44.62822" lon="2.9446">
        <ele>1095.6</ele>
        <time>2021-06-01T08:57:49Z</time>
      </trkpt>
      <trkpt lat="44.62806" lon="2.94435">
        <ele>1098.3</ele>
        <time>2021-06-01T08:58:21Z</time>
      </trkpt>
      <trkpt lat="44.62801" lon="2.94396">
        <ele>1101.5</ele>
        <time>2021-06-01T08:58:51Z</time>
      </trkpt>
      <trkpt lat="44.62793" lon="2.94368">
        <ele>1103.6</ele>
        <time>2021-06-01T08:59:22Z</time>
      </trkpt>
      <trkpt lat="44.62783" lon="2.94335">
        <ele>1107.5</ele>
        <time>2021-06-01T08:59:52Z</time>
      </trkpt>
      <trkpt lat="44.62786" lon="2.94301">
        <ele>1110.7</ele>
        <time>2021-06-01T09:00:22Z</time>
      </trkpt>
      <trkpt lat="44.62796" lon="2.94268">
        <ele>1114.3</ele>
        <time>2021-06-01T09:00:53Z</time>
      </trkpt>
      <trkpt lat="44.62787" lon="2.94245">
        <ele>1119.7</ele>
        <time>2021-06-01T09:01:24Z</time>
      </trkpt>
      <trkpt lat="44.62781" lon="2.94234">
        <ele>1121.2</ele>
        <time>2021-06-01T09:02:00Z</time>
      </trkpt>
      <trkpt lat="44.62759" lon="2.9422">
        <ele>1124.2</ele>
        <time>2021-06-01T09:02:30Z</time>
      </trkpt>
      <trkpt lat="44.62741" lon="2.94193">
        <ele>1126.4</ele>
        <time>2021-06-01T09:03:01Z</time>
      </trkpt>
      <trkpt lat="44.62711" lon="2.94174">
        <ele>1129.5</ele>
        <time>2021-06-01T09:03:31Z</time>
      </trkpt>
      <trkpt lat="44.62683" lon="2.94154">
        <ele>1129.3</ele>
        <time>2021-06-01T09:04:01Z</time>
      </trkpt>
      <trkpt lat="44.62669" lon="2.94135">
        <ele>1132.1</ele>
        <time>2021-06-01T09:04:33Z</time>
      </trkpt>
      <trkpt lat="44.62659" lon="2.94105">
        <ele>1132.9</ele>
        <time>2021-06-01T09:05:03Z</time>
      </trkpt>
      <trkpt lat="44.62633" lon="2.94068">
        <ele>1127.7</ele>
        <time>2021-06-01T09:05:33Z</time>
      </trkpt>
      <trkpt lat="44.62615" lon="2.94038">
        <ele>1124.7</ele>
        <time>2021-06-01T09:06:03Z</time>
      </trkpt>
      <trkpt lat="44.62595" lon="2.93996">
        <ele>1119.9</ele>
        <time>2021-06-01T09:06:34Z</time>
      </trkpt>
      <trkpt lat="44.62599" lon="2.93984">
        <ele>1132.1</ele>
        <time>2021-06-01T09:07:39Z</time>
      </trkpt>
      <trkpt lat="44.62619" lon="2.94019">
        <ele>1130</ele>
        <time>2021-06-01T09:08:10Z</time>
      </trkpt>
      <trkpt lat="44.62649" lon="2.94053">
        <ele>1128.8</ele>
        <time>2021-06-01T09:08:40Z</time>
      </trkpt>
      <trkpt lat="44.62672" lon="2.94072">
        <ele>1128.4</ele>
        <time>2021-06-01T09:09:11Z</time>
      </trkpt>
      <trkpt lat="44.62695" lon="2.94088">
        <ele>1129.4</ele>
        <time>2021-06-01T09:09:42Z</time>
      </trkpt>
      <trkpt lat="44.62723" lon="2.94102">
        <ele>1130.7</ele>
        <time>2021-06-01T09:10:12Z</time>
      </trkpt>
      <trkpt lat="44.62756" lon="2.94123">
        <ele>1132.5</ele>
        <time>2021-06-01T09:10:43Z</time>
      </trkpt>
      <trkpt lat="44.62778" lon="2.94148">
        <ele>1139.5</ele>
        <time>2021-06-01T09:11:13Z</time>
      </trkpt>
      <trkpt lat="44.62811" lon="2.94145">
        <ele>1142.9</ele>
        <time>2021-06-01T09:11:45Z</time>
      </trkpt>
      <trkpt lat="44.62852" lon="2.94138">
        <ele>1144.6</ele>
        <time>2021-06-01T09:12:15Z</time>
      </trkpt>
      <trkpt lat="44.62879" lon="2.94133">
        <ele>1145.9</ele>
        <time>2021-06-01T09:12:45Z</time>
      </trkpt>
      <trkpt lat="44.6291" lon="2.94136">
        <ele>1151.2</ele>
        <time>2021-06-01T09:13:15Z</time>
      </trkpt>
      <trkpt lat="44.62945" lon="2.94143">
        <ele>1150.5</ele>
        <time>2021-06-01T09:13:45Z</time>
      </trkpt>
      <trkpt lat="44.62977" lon="2.94159">
        <ele>1150.4</ele>
        <time>2021-06-01T09:14:15Z</time>
      </trkpt>
      <trkpt lat="44.62992" lon="2.94164">
        <ele>1149.3</ele>
        <time>2021-06-01T09:14:45Z</time>
      </trkpt>
      <trkpt lat="44.63001" lon="2.9417">
        <ele>1148.7</ele>
        <time>2021-06-01T09:15:28Z</time>
      </trkpt>
      <trkpt lat="44.63031" lon="2.94185">
        <ele>1144.9</ele>
        <time>2021-06-01T09:15:58Z</time>
      </trkpt>
      <trkpt lat="44.6306" lon="2.94195">
        <ele>1142</ele>
        <time>2021-06-01T09:16:30Z</time>
      </trkpt>
      <trkpt lat="44.63088" lon="2.94208">
        <ele>1140.5</ele>
        <time>2021-06-01T09:17:00Z</time>
      </trkpt>
      <trkpt lat="44.63107" lon="2.94231">
        <ele>1140.3</ele>
        <time>2021-06-01T09:17:30Z</time>
      </trkpt>
      <trkpt lat="44.63129" lon="2.94256">
        <ele>1139.7</ele>
        <time>2021-06-01T09:18:00Z</time>
      </trkpt>
      <trkpt lat="44.63152" lon="2.94276">
        <ele>1139.8</ele>
        <time>2021-06-01T09:18:31Z</time>
      </trkpt>
      <trkpt lat="44.63159" lon="2.94303">
        <ele>1151.9</ele>
        <time>2021-06-01T09:19:02Z</time>
      </trkpt>
      <trkpt lat="44.63168" lon="2.943">
        <ele>1167.4</ele>
        <time>2021-06-01T09:21:22Z</time>
      </trkpt>
      <trkpt lat="44.63197" lon="2.94324">
        <ele>1166.1</ele>
        <time>2021-06-01T09:21:52Z</time>
      </trkpt>
      <trkpt lat="44.63232" lon="2.94346">
        <ele>1169.1</ele>
        <time>2021-06-01T09:22:23Z</time>
      </trkpt>
      <trkpt lat="44.63263" lon="2.94358">
        <ele>1171.6</ele>
        <time>2021-06-01T09:22:54Z</time>
      </trkpt>
      <trkpt lat="44.6329" lon="2.94378">
        <ele>1173.8</ele>
        <time>2021-06-01T09:23:25Z</time>
      </trkpt>
      <trkpt lat="44.63328" lon="2.94388">
        <ele>1176.2</ele>
        <time>2021-06-01T09:23:56Z</time>
      </trkpt>
      <trkpt lat="44.63358" lon="2.9439">
        <ele>1180.2</ele>
        <time>2021-06-01T09:24:27Z</time>
      </trkpt>
      <trkpt lat="44.63387" lon="2.94378">
        <ele>1185</ele>
        <time>2021-06-01T09:24:57Z</time>
      </trkpt>
      <trkpt lat="44.63416" lon="2.94357">
        <ele>1187.1</ele>
        <time>2021-06-01T09:25:27Z</time>
      </trkpt>
      <trkpt lat="44.63443" lon="2.94332">
        <ele>1190.1</ele>
        <time>2021-06-01T09:25:57Z</time>
      </trkpt>
      <trkpt lat="44.6346" lon="2.94306">
        <ele>1192</ele>
        <time>2021-06-01T09:26:28Z</time>
      </trkpt>
      <trkpt lat="44.63477" lon="2.94288">
        <ele>1190.7</ele>
        <time>2021-06-01T09:26:58Z</time>
      </trkpt>
      <trkpt lat="44.63486" lon="2.94287">
        <ele>1190.2</ele>
        <time>2021-06-01T09:28:02Z</time>
      </trkpt>
      <trkpt lat="44.6352" lon="2.94289">
        <ele>1193.6</ele>
        <time>2021-06-01T09:28:32Z</time>
      </trkpt>
      <trkpt lat="44.63549" lon="2.94302">
        <ele>1198.9</ele>
        <time>2021-06-01T09:29:03Z</time>
      </trkpt>
      <trkpt lat="44.63579" lon="2.94307">
        <ele>1206.9</ele>
        <time>2021-06-01T09:29:33Z</time>
      </trkpt>
      <trkpt lat="44.63606" lon="2.94316">
        <ele>1212.7</ele>
        <time>2021-06-01T09:30:04Z</time>
      </trkpt>
      <trkpt lat="44.63636" lon="2.94333">
        <ele>1215.9</ele>
        <time>2021-06-01T09:30:34Z</time>
      </trkpt>
      <trkpt lat="44.63658" lon="2.94331">
        <ele>1218.1</ele>
        <time>2021-06-01T09:31:04Z</time>
      </trkpt>
      <trkpt lat="44.63667" lon="2.9433">
        <ele>1213.5</ele>
        <time>2021-06-01T09:32:00Z</time>
      </trkpt>
      <trkpt lat="44.63688" lon="2.9431">
        <ele>1216.5</ele>
        <time>2021-06-01T09:32:30Z</time>
      </trkpt>
      <trkpt lat="44.63711" lon="2.94296">
        <ele>1219.1</ele>
        <time>2021-06-01T09:33:01Z</time>
      </trkpt>
      <trkpt lat="44.63737" lon="2.94281">
        <ele>1221.5</ele>
        <time>2021-06-01T09:33:31Z</time>
      </trkpt>
      <trkpt lat="44.63762" lon="2.94273">
        <ele>1227.8</ele>
        <time>2021-06-01T09:34:01Z</time>
      </trkpt>
      <trkpt lat="44.63778" lon="2.94264">
        <ele>1228.9</ele>
        <time>2021-06-01T09:34:31Z</time>
      </trkpt>
      <trkpt lat="44.63805" lon="2.94261">
        <ele>1229.2</ele>
        <time>2021-06-01T09:35:03Z</time>
      </trkpt>
      <trkpt lat="44.63829" lon="2.9425">
        <ele>1231.1</ele>
        <time>2021-06-01T09:35:34Z</time>
      </trkpt>
      <trkpt lat="44.6385" lon="2.94216">
        <ele>1236.5</ele>
        <time>2021-06-01T09:36:05Z</time>
      </trkpt>
      <trkpt lat="44.63855" lon="2.94201">
        <ele>1236.6</ele>
        <time>2021-06-01T09:36:35Z</time>
      </trkpt>
      <trkpt lat="44.63864" lon="2.94196">
        <ele>1240.2</ele>
        <time>2021-06-01T09:39:34Z</time>
      </trkpt>
      <trkpt lat="44.63855" lon="2.94198">
        <ele>1238.8</ele>
        <time>2021-06-01T09:40:13Z</time>
      </trkpt>
      <trkpt lat="44.63849" lon="2.94209">
        <ele>1235</ele>
        <time>2021-06-01T09:41:30Z</time>
      </trkpt>
      <trkpt lat="44.63848" lon="2.94238">
        <ele>1232.4</ele>
        <time>2021-06-01T09:42:01Z</time>
      </trkpt>
      <trkpt lat="44.63853" lon="2.942">
        <ele>1227.8</ele>
        <time>2021-06-01T09:42:32Z</time>
      </trkpt>
      <trkpt lat="44.63854" lon="2.94199">
        <ele>1231.3</ele>
        <time>2021-06-01T09:47:42Z</time>
      </trkpt>
      <trkpt lat="44.63854" lon="2.94199">
        <ele>1232.2</ele>
        <time>2021-06-01T09:48:12Z</time>
      </trkpt>
      <trkpt lat="44.63854" lon="2.94199">
        <ele>1231.9</ele>
        <time>2021-06-01T09:48:43Z</time>
      </trkpt>
      <trkpt lat="44.63854" lon="2.94199">
        <ele>1231.4</ele>
        <time>2021-06-01T09:49:13Z</time>
      </trkpt>
      <trkpt lat="44.63845" lon="2.94195">
        <ele>1238.7</ele>
        <time>2021-06-01T10:10:15Z</time>
      </trkpt>
      <trkpt lat="44.63842" lon="2.94151">
        <ele>1239.9</ele>
        <time>2021-06-01T10:10:45Z</time>
      </trkpt>
      <trkpt lat="44.63841" lon="2.94101">
        <ele>1239.6</ele>
        <time>2021-06-01T10:11:16Z</time>
      </trkpt>
      <trkpt lat="44.63832" lon="2.9404">
        <ele>1247.3</ele>
        <time>2021-06-01T10:11:47Z</time>
      </trkpt>
      <trkpt lat="44.63825" lon="2.94014">
        <ele>1249.2</ele>
        <time>2021-06-01T10:12:17Z</time>
      </trkpt>
      <trkpt lat="44.63828" lon="2.94001">
        <ele>1251</ele>
        <time>2021-06-01T10:13:12Z</time>
      </trkpt>
      <trkpt lat="44.63811" lon="2.93952">
        <ele>1249.4</ele>
        <time>2021-06-01T10:13:42Z</time>
      </trkpt>
      <trkpt lat="44.63796" lon="2.93894">
        <ele>1247</ele>
        <time>2021-06-01T10:14:12Z</time>
      </trkpt>
      <trkpt lat="44.63791" lon="2.93852">
        <ele>1240.6</ele>
        <time>2021-06-01T10:14:44Z</time>
      </trkpt>
      <trkpt lat="44.63803" lon="2.93806">
        <ele>1235.2</ele>
        <time>2021-06-01T10:15:14Z</time>
      </trkpt>
      <trkpt lat="44.63831" lon="2.93759">
        <ele>1225.6</ele>
        <time>2021-06-01T10:15:45Z</time>
      </trkpt>
      <trkpt lat="44.63858" lon="2.93726">
        <ele>1219.9</ele>
        <time>2021-06-01T10:16:15Z</time>
      </trkpt>
      <trkpt lat="44.63869" lon="2.93688">
        <ele>1217.6</ele>
        <time>2021-06-01T10:16:45Z</time>
      </trkpt>
      <trkpt lat="44.63856" lon="2.93687">
        <ele>1215</ele>
        <time>2021-06-01T10:17:16Z</time>
      </trkpt>
      <trkpt lat="44.63862" lon="2.93697">
        <ele>1216</ele>
        <time>2021-06-01T10:17:53Z</time>
      </trkpt>
      <trkpt lat="44.63855" lon="2.93687">
        <ele>1218.5</ele>
        <time>2021-06-01T10:18:26Z</time>
      </trkpt>
      <trkpt lat="44.63846" lon="2.93684">
        <ele>1219.8</ele>
        <time>2021-06-01T10:18:59Z</time>
      </trkpt>
      <trkpt lat="44.63814" lon="2.93673">
        <ele>1219.5</ele>
        <time>2021-06-01T10:19:30Z</time>
      </trkpt>
      <trkpt lat="44.63784" lon="2.93655">
        <ele>1215.3</ele>
        <time>2021-06-01T10:20:01Z</time>
      </trkpt>
      <trkpt lat="44.63759" lon="2.93612">
        <ele>1208.1</ele>
        <time>2021-06-01T10:20:31Z</time>
      </trkpt>
      <trkpt lat="44.63746" lon="2.93557">
        <ele>1200.5</ele>
        <time>2021-06-01T10:21:02Z</time>
      </trkpt>
      <trkpt lat="44.6373" lon="2.93513">
        <ele>1191.4</ele>
        <time>2021-06-01T10:21:33Z</time>
      </trkpt>
      <trkpt lat="44.63716" lon="2.93462">
        <ele>1184.6</ele>
        <time>2021-06-01T10:22:04Z</time>
      </trkpt>
      <trkpt lat="44.63702" lon="2.93414">
        <ele>1178.2</ele>
        <time>2021-06-01T10:22:35Z</time>
      </trkpt>
      <trkpt lat="44.63698" lon="2.93402">
        <ele>1184.2</ele>
        <time>2021-06-01T10:23:24Z</time>
      </trkpt>
      <trkpt lat="44.63693" lon="2.93386">
        <ele>1182.3</ele>
        <time>2021-06-01T10:23:55Z</time>
      </trkpt>
      <trkpt lat="44.63679" lon="2.93339">
        <ele>1178.8</ele>
        <time>2021-06-01T10:24:27Z</time>
      </trkpt>
      <trkpt lat="44.63665" lon="2.9329">
        <ele>1168.7</ele>
        <time>2021-06-01T10:24:57Z</time>
      </trkpt>
      <trkpt lat="44.63647" lon="2.93245">
        <ele>1162.7</ele>
        <time>2021-06-01T10:25:27Z</time>
      </trkpt>
      <trkpt lat="44.6364" lon="2.93203">
        <ele>1159.7</ele>
        <time>2021-06-01T10:25:57Z</time>
      </trkpt>
      <trkpt lat="44.63671" lon="2.93187">
        <ele>1153.3</ele>
        <time>2021-06-01T10:26:28Z</time>
      </trkpt>
      <trkpt lat="44.6369" lon="2.93174">
        <ele>1152.5</ele>
        <time>2021-06-01T10:26:59Z</time>
      </trkpt>
      <trkpt lat="44.63721" lon="2.9317">
        <ele>1154.1</ele>
        <time>2021-06-01T10:27:29Z</time>
      </trkpt>
      <trkpt lat="44.63736" lon="2.93182">
        <ele>1158.9</ele>
        <time>2021-06-01T10:27:59Z</time>
      </trkpt>
      <trkpt lat="44.63758" lon="2.93194">
        <ele>1162.2</ele>
        <time>2021-06-01T10:28:30Z</time>
      </trkpt>
      <trkpt lat="44.63788" lon="2.93222">
        <ele>1159.1</ele>
        <time>2021-06-01T10:29:01Z</time>
      </trkpt>
      <trkpt lat="44.63819" lon="2.93255">
        <ele>1162.2</ele>
        <time>2021-06-01T10:29:32Z</time>
      </trkpt>
      <trkpt lat="44.63844" lon="2.93274">
        <ele>1164.5</ele>
        <time>2021-06-01T10:30:02Z</time>
      </trkpt>
      <trkpt lat="44.63886" lon="2.93294">
        <ele>1161.9</ele>
        <time>2021-06-01T10:30:33Z</time>
      </trkpt>
      <trkpt lat="44.63926" lon="2.93308">
        <ele>1158.5</ele>
        <time>2021-06-01T10:31:03Z</time>
      </trkpt>
      <trkpt lat="44.63966" lon="2.9332">
        <ele>1153.9</ele>
        <time>2021-06-01T10:31:33Z</time>
      </trkpt>
      <trkpt lat="44.64002" lon="2.93322">
        <ele>1152.8</ele>
        <time>2021-06-01T10:32:03Z</time>
      </trkpt>
      <trkpt lat="44.64043" lon="2.93318">
        <ele>1148.3</ele>
        <time>2021-06-01T10:32:34Z</time>
      </trkpt>
      <trkpt lat="44.64078" lon="2.93324">
        <ele>1144.7</ele>
        <time>2021-06-01T10:33:04Z</time>
      </trkpt>
      <trkpt lat="44.64105" lon="2.93328">
        <ele>1138.8</ele>
        <time>2021-06-01T10:33:34Z</time>
      </trkpt>
      <trkpt lat="44.64135" lon="2.9334">
        <ele>1129.7</ele>
        <time>2021-06-01T10:34:05Z</time>
      </trkpt>
      <trkpt lat="44.64167" lon="2.93358">
        <ele>1122.3</ele>
        <time>2021-06-01T10:34:35Z</time>
      </trkpt>
      <trkpt lat="44.64193" lon="2.93373">
        <ele>1114</ele>
        <time>2021-06-01T10:35:05Z</time>
      </trkpt>
      <trkpt lat="44.64222" lon="2.93372">
        <ele>1106.4</ele>
        <time>2021-06-01T10:35:35Z</time>
      </trkpt>
      <trkpt lat="44.64246" lon="2.93377">
        <ele>1098.2</ele>
        <time>2021-06-01T10:36:06Z</time>
      </trkpt>
      <trkpt lat="44.64269" lon="2.93386">
        <ele>1090.7</ele>
        <time>2021-06-01T10:36:36Z</time>
      </trkpt>
      <trkpt lat="44.64296" lon="2.93406">
        <ele>1086.4</ele>
        <time>2021-06-01T10:37:07Z</time>
      </trkpt>
      <trkpt lat="44.64316" lon="2.93421">
        <ele>1087</ele>
        <time>2021-06-01T10:37:37Z</time>
      </trkpt>
      <trkpt lat="44.64325" lon="2.93429">
        <ele>1086.2</ele>
        <time>2021-06-01T10:38:07Z</time>
      </trkpt>
      <trkpt lat="44.64334" lon="2.93432">
        <ele>1085.8</ele>
        <time>2021-06-01T10:38:39Z</time>
      </trkpt>
      <trkpt lat="44.64346" lon="2.93411">
        <ele>1084</ele>
        <time>2021-06-01T10:39:09Z</time>
      </trkpt>
      <trkpt lat="44.64349" lon="2.93398">
        <ele>1084.8</ele>
        <time>2021-06-01T10:41:42Z</time>
      </trkpt>
      <trkpt lat="44.64347" lon="2.93353">
        <ele>1078.8</ele>
        <time>2021-06-01T10:42:13Z</time>
      </trkpt>
      <trkpt lat="44.64344" lon="2.93299">
        <ele>1076.6</ele>
        <time>2021-06-01T10:42:43Z</time>
      </trkpt>
      <trkpt lat="44.64346" lon="2.93254">
        <ele>1080.8</ele>
        <time>2021-06-01T10:43:13Z</time>
      </trkpt>
      <trkpt lat="44.64355" lon="2.93275">
        <ele>1086.7</ele>
        <time>2021-06-01T10:43:43Z</time>
      </trkpt>
      <trkpt lat="44.64368" lon="2.93321">
        <ele>1090.3</ele>
        <time>2021-06-01T10:44:13Z</time>
      </trkpt>
      <trkpt lat="44.64378" lon="2.93339">
        <ele>1094.7</ele>
        <time>2021-06-01T10:44:44Z</time>
      </trkpt>
      <trkpt lat="44.64408" lon="2.93363">
        <ele>1096.4</ele>
        <time>2021-06-01T10:45:15Z</time>
      </trkpt>
      <trkpt lat="44.64438" lon="2.93374">
        <ele>1097</ele>
        <time>2021-06-01T10:45:45Z</time>
      </trkpt>
      <trkpt lat="44.64455" lon="2.93404">
        <ele>1100.4</ele>
        <time>2021-06-01T10:46:15Z</time>
      </trkpt>
      <trkpt lat="44.64462" lon="2.9337">
        <ele>1101.6</ele>
        <time>2021-06-01T10:46:45Z</time>
      </trkpt>
      <trkpt lat="44.64464" lon="2.93334">
        <ele>1101.6</ele>
        <time>2021-06-01T10:47:16Z</time>
      </trkpt>
      <trkpt lat="44.6447" lon="2.93302">
        <ele>1103.9</ele>
        <time>2021-06-01T10:47:47Z</time>
      </trkpt>
      <trkpt lat="44.64472" lon="2.93266">
        <ele>1105.4</ele>
        <time>2021-06-01T10:48:17Z</time>
      </trkpt>
      <trkpt lat="44.64466" lon="2.93237">
        <ele>1108.3</ele>
        <time>2021-06-01T10:48:47Z</time>
      </trkpt>
      <trkpt lat="44.64466" lon="2.93204">
        <ele>1112.1</ele>
        <time>2021-06-01T10:49:18Z</time>
      </trkpt>
      <trkpt lat="44.64468" lon="2.93167">
        <ele>1117.3</ele>
        <time>2021-06-01T10:49:48Z</time>
      </trkpt>
      <trkpt lat="44.64459" lon="2.93135">
        <ele>1119.6</ele>
        <time>2021-06-01T10:50:18Z</time>
      </trkpt>
      <trkpt lat="44.64452" lon="2.93093">
        <ele>1123</ele>
        <time>2021-06-01T10:50:49Z</time>
      </trkpt>
      <trkpt lat="44.64456" lon="2.93043">
        <ele>1124.5</ele>
        <time>2021-06-01T10:51:20Z</time>
      </trkpt>
      <trkpt lat="44.64473" lon="2.93023">
        <ele>1129.8</ele>
        <time>2021-06-01T10:51:50Z</time>
      </trkpt>
      <trkpt lat="44.64482" lon="2.93026">
        <ele>1135.7</ele>
        <time>2021-06-01T10:52:21Z</time>
      </trkpt>
      <trkpt lat="44.64506" lon="2.93053">
        <ele>1137.2</ele>
        <time>2021-06-01T10:52:51Z</time>
      </trkpt>
      <trkpt lat="44.64526" lon="2.93083">
        <ele>1137.7</ele>
        <time>2021-06-01T10:53:21Z</time>
      </trkpt>
      <trkpt lat="44.64545" lon="2.93123">
        <ele>1136.7</ele>
        <time>2021-06-01T10:53:52Z</time>
      </trkpt>
      <trkpt lat="44.64569" lon="2.93164">
        <ele>1136.3</ele>
        <time>2021-06-01T10:54:23Z</time>
      </trkpt>
      <trkpt lat="44.64595" lon="2.93207">
        <ele>1141.1</ele>
        <time>2021-06-01T10:54:54Z</time>
      </trkpt>
      <trkpt lat="44.6461" lon="2.93229">
        <ele>1142.1</ele>
        <time>2021-06-01T10:55:25Z</time>
      </trkpt>
      <trkpt lat="44.64612" lon="2.93268">
        <ele>1146.5</ele>
        <time>2021-06-01T10:55:56Z</time>
      </trkpt>
      <trkpt lat="44.64621" lon="2.9331">
        <ele>1147.7</ele>
        <time>2021-06-01T10:56:27Z</time>
      </trkpt>
      <trkpt lat="44.64625" lon="2.93344">
        <ele>1150.2</ele>
        <time>2021-06-01T10:56:58Z</time>
      </trkpt>
      <trkpt lat="44.64635" lon="2.93376">
        <ele>1153.7</ele>
        <time>2021-06-01T10:57:29Z</time>
      </trkpt>
      <trkpt lat="44.64648" lon="2.93412">
        <ele>1157.7</ele>
        <time>2021-06-01T10:58:00Z</time>
      </trkpt>
      <trkpt lat="44.64667" lon="2.93439">
        <ele>1160.1</ele>
        <time>2021-06-01T10:58:31Z</time>
      </trkpt>
      <trkpt lat="44.64686" lon="2.93471">
        <ele>1162.2</ele>
        <time>2021-06-01T10:59:02Z</time>
      </trkpt>
      <trkpt lat="44.64701" lon="2.93494">
        <ele>1165.8</ele>
        <time>2021-06-01T10:59:32Z</time>
      </trkpt>
      <trkpt lat="44.64716" lon="2.93523">
        <ele>1170.3</ele>
        <time>2021-06-01T11:00:03Z</time>
      </trkpt>
      <trkpt lat="44.64733" lon="2.93551">
        <ele>1175.2</ele>
        <time>2021-06-01T11:00:33Z</time>
      </trkpt>
      <trkpt lat="44.64751" lon="2.93584">
        <ele>1183.4</ele>
        <time>2021-06-01T11:01:03Z</time>
      </trkpt>
      <trkpt lat="44.64777" lon="2.93586">
        <ele>1197.9</ele>
        <time>2021-06-01T11:01:33Z</time>
      </trkpt>
      <trkpt lat="44.64798" lon="2.9361">
        <ele>1199</ele>
        <time>2021-06-01T11:02:04Z</time>
      </trkpt>
      <trkpt lat="44.64822" lon="2.9365">
        <ele>1196.6</ele>
        <time>2021-06-01T11:02:35Z</time>
      </trkpt>
      <trkpt lat="44.64852" lon="2.93683">
        <ele>1193.6</ele>
        <time>2021-06-01T11:03:06Z</time>
      </trkpt>
      <trkpt lat="44.64882" lon="2.93702">
        <ele>1193.1</ele>
        <time>2021-06-01T11:03:37Z</time>
      </trkpt>
      <trkpt lat="44.64906" lon="2.93693">
        <ele>1196.7</ele>
        <time>2021-06-01T11:04:08Z</time>
      </trkpt>
      <trkpt lat="44.64924" lon="2.93702">
        <ele>1199.9</ele>
        <time>2021-06-01T11:04:38Z</time>
      </trkpt>
      <trkpt lat="44.64943" lon="2.93699">
        <ele>1204</ele>
        <time>2021-06-01T11:05:09Z</time>
      </trkpt>
      <trkpt lat="44.6496" lon="2.93696">
        <ele>1203.1</ele>
        <time>2021-06-01T11:05:39Z</time>
      </trkpt>
      <trkpt lat="44.64988" lon="2.93684">
        <ele>1205</ele>
        <time>2021-06-01T11:06:10Z</time>
      </trkpt>
      <trkpt lat="44.65016" lon="2.93683">
        <ele>1207.9</ele>
        <time>2021-06-01T11:06:40Z</time>
      </trkpt>
      <trkpt lat="44.65044" lon="2.93688">
        <ele>1210.1</ele>
        <time>2021-06-01T11:07:11Z</time>
      </trkpt>
      <trkpt lat="44.65064" lon="2.93703">
        <ele>1212.8</ele>
        <time>2021-06-01T11:07:42Z</time>
      </trkpt>
      <trkpt lat="44.65091" lon="2.93705">
        <ele>1215.3</ele>
        <time>2021-06-01T11:08:12Z</time>
      </trkpt>
      <trkpt lat="44.65103" lon="2.93711">
        <ele>1215.1</ele>
        <time>2021-06-01T11:08:42Z</time>
      </trkpt>
      <trkpt lat="44.65124" lon="2.93722">
        <ele>1218</ele>
        <time>2021-06-01T11:09:12Z</time>
      </trkpt>
      <trkpt lat="44.65147" lon="2.93725">
        <ele>1221</ele>
        <time>2021-06-01T11:09:44Z</time>
      </trkpt>
      <trkpt lat="44.65156" lon="2.93724">
        <ele>1231.5</ele>
        <time>2021-06-01T11:10:55Z</time>
      </trkpt>
      <trkpt lat="44.65185" lon="2.9373">
        <ele>1237.7</ele>
        <time>2021-06-01T11:11:26Z</time>
      </trkpt>
      <trkpt lat="44.65209" lon="2.93719">
        <ele>1242.7</ele>
        <time>2021-06-01T11:11:57Z</time>
      </trkpt>
      <trkpt lat="44.65221" lon="2.9372">
        <ele>1245.5</ele>
        <time>2021-06-01T11:12:27Z</time>
      </trkpt>
      <trkpt lat="44.65249" lon="2.93732">
        <ele>1238.8</ele>
        <time>2021-06-01T11:12:58Z</time>
      </trkpt>
      <trkpt lat="44.65267" lon="2.93738">
        <ele>1235.1</ele>
        <time>2021-06-01T11:13:28Z</time>
      </trkpt>
      <trkpt lat="44.65276" lon="2.93744">
        <ele>1236.6</ele>
        <time>2021-06-01T11:14:21Z</time>
      </trkpt>
      <trkpt lat="44.65298" lon="2.9375">
        <ele>1239.4</ele>
        <time>2021-06-01T11:14:52Z</time>
      </trkpt>
      <trkpt lat="44.65322" lon="2.93757">
        <ele>1236.5</ele>
        <time>2021-06-01T11:15:23Z</time>
      </trkpt>
      <trkpt lat="44.65345" lon="2.9376">
        <ele>1235.8</ele>
        <time>2021-06-01T11:15:53Z</time>
      </trkpt>
      <trkpt lat="44.65374" lon="2.93762">
        <ele>1235.6</ele>
        <time>2021-06-01T11:16:23Z</time>
      </trkpt>
      <trkpt lat="44.654" lon="2.93762">
        <ele>1236.2</ele>
        <time>2021-06-01T11:16:54Z</time>
      </trkpt>
      <trkpt lat="44.65431" lon="2.93753">
        <ele>1237.6</ele>
        <time>2021-06-01T11:17:24Z</time>
      </trkpt>
      <trkpt lat="44.65461" lon="2.93756">
        <ele>1241.9</ele>
        <time>2021-06-01T11:17:55Z</time>
      </trkpt>
      <trkpt lat="44.65483" lon="2.9375">
        <ele>1241.2</ele>
        <time>2021-06-01T11:18:26Z</time>
      </trkpt>
      <trkpt lat="44.65496" lon="2.93746">
        <ele>1241.4</ele>
        <time>2021-06-01T11:18:57Z</time>
      </trkpt>
      <trkpt lat="44.65505" lon="2.9374">
        <ele>1240.8</ele>
        <time>2021-06-01T11:19:27Z</time>
      </trkpt>
      <trkpt lat="44.65534" lon="2.93713">
        <ele>1238.6</ele>
        <time>2021-06-01T11:19:57Z</time>
      </trkpt>
      <trkpt lat="44.65543" lon="2.93697">
        <ele>1240.1</ele>
        <time>2021-06-01T11:20:27Z</time>
      </trkpt>
      <trkpt lat="44.65523" lon="2.93719">
        <ele>1243.7</ele>
        <time>2021-06-01T11:20:58Z</time>
      </trkpt>
      <trkpt lat="44.65498" lon="2.93743">
        <ele>1246.1</ele>
        <time>2021-06-01T11:21:28Z</time>
      </trkpt>
      <trkpt lat="44.65521" lon="2.93761">
        <ele>1248.5</ele>
        <time>2021-06-01T11:21:59Z</time>
      </trkpt>
      <trkpt lat="44.65529" lon="2.93767">
        <ele>1248.6</ele>
        <time>2021-06-01T11:22:40Z</time>
      </trkpt>
      <trkpt lat="44.65554" lon="2.93771">
        <ele>1251.7</ele>
        <time>2021-06-01T11:23:11Z</time>
      </trkpt>
      <trkpt lat="44.65582" lon="2.93775">
        <ele>1253.9</ele>
        <time>2021-06-01T11:23:42Z</time>
      </trkpt>
      <trkpt lat="44.65599" lon="2.93796">
        <ele>1256.8</ele>
        <time>2021-06-01T11:24:13Z</time>
      </trkpt>
      <trkpt lat="44.65604" lon="2.93805">
        <ele>1258.3</ele>
        <time>2021-06-01T11:24:57Z</time>
      </trkpt>
      <trkpt lat="44.65621" lon="2.93839">
        <ele>1262.2</ele>
        <time>2021-06-01T11:25:28Z</time>
      </trkpt>
      <trkpt lat="44.65631" lon="2.93864">
        <ele>1265.6</ele>
        <time>2021-06-01T11:25:59Z</time>
      </trkpt>
      <trkpt lat="44.65652" lon="2.93865">
        <ele>1268.4</ele>
        <time>2021-06-01T11:26:29Z</time>
      </trkpt>
      <trkpt lat="44.65661" lon="2.93862">
        <ele>1269.3</ele>
        <time>2021-06-01T11:27:03Z</time>
      </trkpt>
      <trkpt lat="44.65698" lon="2.9388">
        <ele>1272.1</ele>
        <time>2021-06-01T11:27:34Z</time>
      </trkpt>
      <trkpt lat="44.65727" lon="2.93901">
        <ele>1270.1</ele>
        <time>2021-06-01T11:28:05Z</time>
      </trkpt>
      <trkpt lat="44.65747" lon="2.93918">
        <ele>1265</ele>
        <time>2021-06-01T11:28:35Z</time>
      </trkpt>
      <trkpt lat="44.65757" lon="2.9392">
        <ele>1269.6</ele>
        <time>2021-06-01T11:29:09Z</time>
      </trkpt>
      <trkpt lat="44.65786" lon="2.93927">
        <ele>1261.3</ele>
        <time>2021-06-01T11:29:39Z</time>
      </trkpt>
      <trkpt lat="44.65777" lon="2.93932">
        <ele>1253</ele>
        <time>2021-06-01T11:30:40Z</time>
      </trkpt>
      <trkpt lat="44.65784" lon="2.93924">
        <ele>1256.7</ele>
        <time>2021-06-01T11:31:27Z</time>
      </trkpt>
      <trkpt lat="44.65794" lon="2.93931">
        <ele>1255.3</ele>
        <time>2021-06-01T11:31:57Z</time>
      </trkpt>
      <trkpt lat="44.65817" lon="2.93935">
        <ele>1256.6</ele>
        <time>2021-06-01T11:32:27Z</time>
      </trkpt>
      <trkpt lat="44.65817" lon="2.93935">
        <ele>1256.3</ele>
        <time>2021-06-01T11:32:58Z</time>
      </trkpt>
      <trkpt lat="44.65821" lon="2.93937">
        <ele>1256.2</ele>
        <time>2021-06-01T11:33:28Z</time>
      </trkpt>
      <trkpt lat="44.65824" lon="2.93936">
        <ele>1255.8</ele>
        <time>2021-06-01T11:33:59Z</time>
      </trkpt>
      <trkpt lat="44.65832" lon="2.93943">
        <ele>1257.8</ele>
        <time>2021-06-01T11:34:29Z</time>
      </trkpt>
      <trkpt lat="44.65865" lon="2.93924">
        <ele>1260.1</ele>
        <time>2021-06-01T11:35:00Z</time>
      </trkpt>
      <trkpt lat="44.65896" lon="2.93898">
        <ele>1261.9</ele>
        <time>2021-06-01T11:35:31Z</time>
      </trkpt>
      <trkpt lat="44.65923" lon="2.93889">
        <ele>1265.3</ele>
        <time>2021-06-01T11:36:01Z</time>
      </trkpt>
      <trkpt lat="44.65957" lon="2.93878">
        <ele>1268</ele>
        <time>2021-06-01T11:36:32Z</time>
      </trkpt>
      <trkpt lat="44.65983" lon="2.93846">
        <ele>1269.5</ele>
        <time>2021-06-01T11:37:03Z</time>
      </trkpt>
      <trkpt lat="44.66011" lon="2.93821">
        <ele>1269.1</ele>
        <time>2021-06-01T11:37:33Z</time>
      </trkpt>
      <trkpt lat="44.66049" lon="2.93801">
        <ele>1272.8</ele>
        <time>2021-06-01T11:38:04Z</time>
      </trkpt>
      <trkpt lat="44.66074" lon="2.93762">
        <ele>1272.7</ele>
        <time>2021-06-01T11:38:35Z</time>
      </trkpt>
      <trkpt lat="44.66085" lon="2.93725">
        <ele>1274.1</ele>
        <time>2021-06-01T11:39:06Z</time>
      </trkpt>
      <trkpt lat="44.66089" lon="2.93674">
        <ele>1269</ele>
        <time>2021-06-01T11:39:36Z</time>
      </trkpt>
      <trkpt lat="44.66068" lon="2.93632">
        <ele>1263.5</ele>
        <time>2021-06-01T11:40:07Z</time>
      </trkpt>
      <trkpt lat="44.66046" lon="2.93588">
        <ele>1261.6</ele>
        <time>2021-06-01T11:40:38Z</time>
      </trkpt>
      <trkpt lat="44.6603" lon="2.93541">
        <ele>1266.4</ele>
        <time>2021-06-01T11:41:08Z</time>
      </trkpt>
      <trkpt lat="44.66019" lon="2.93494">
        <ele>1271.5</ele>
        <time>2021-06-01T11:41:38Z</time>
      </trkpt>
      <trkpt lat="44.66007" lon="2.93448">
        <ele>1269.5</ele>
        <time>2021-06-01T11:42:09Z</time>
      </trkpt>
      <trkpt lat="44.66002" lon="2.93432">
        <ele>1269.5</ele>
        <time>2021-06-01T11:42:40Z</time>
      </trkpt>
      <trkpt lat="44.66002" lon="2.93434">
        <ele>1270</ele>
        <time>2021-06-01T11:43:10Z</time>
      </trkpt>
      <trkpt lat="44.66001" lon="2.93422">
        <ele>1271.5</ele>
        <time>2021-06-01T11:43:46Z</time>
      </trkpt>
      <trkpt lat="44.66007" lon="2.93372">
        <ele>1274.4</ele>
        <time>2021-06-01T11:44:16Z</time>
      </trkpt>
      <trkpt lat="44.65997" lon="2.93334">
        <ele>1268.3</ele>
        <time>2021-06-01T11:44:46Z</time>
      </trkpt>
      <trkpt lat="44.65982" lon="2.93313">
        <ele>1269.8</ele>
        <time>2021-06-01T11:45:17Z</time>
      </trkpt>
      <trkpt lat="44.65985" lon="2.9327">
        <ele>1277.6</ele>
        <time>2021-06-01T11:45:48Z</time>
      </trkpt>
      <trkpt lat="44.65987" lon="2.93256">
        <ele>1277.3</ele>
        <time>2021-06-01T11:47:04Z</time>
      </trkpt>
      <trkpt lat="44.65992" lon="2.93208">
        <ele>1282.2</ele>
        <time>2021-06-01T11:47:34Z</time>
      </trkpt>
      <trkpt lat="44.65988" lon="2.93158">
        <ele>1282.2</ele>
        <time>2021-06-01T11:48:04Z</time>
      </trkpt>
      <trkpt lat="44.65973" lon="2.93109">
        <ele>1279.4</ele>
        <time>2021-06-01T11:48:35Z</time>
      </trkpt>
      <trkpt lat="44.65942" lon="2.93097">
        <ele>1276.3</ele>
        <time>2021-06-01T11:49:05Z</time>
      </trkpt>
      <trkpt lat="44.65906" lon="2.93092">
        <ele>1267</ele>
        <time>2021-06-01T11:49:36Z</time>
      </trkpt>
      <trkpt lat="44.65876" lon="2.93075">
        <ele>1259</ele>
        <time>2021-06-01T11:50:06Z</time>
      </trkpt>
      <trkpt lat="44.65843" lon="2.93058">
        <ele>1251.6</ele>
        <time>2021-06-01T11:50:37Z</time>
      </trkpt>
      <trkpt lat="44.65818" lon="2.9304">
        <ele>1243.8</ele>
        <time>2021-06-01T11:51:08Z</time>
      </trkpt>
      <trkpt lat="44.65788" lon="2.93014">
        <ele>1233.3</ele>
        <time>2021-06-01T11:51:39Z</time>
      </trkpt>
      <trkpt lat="44.65755" lon="2.92981">
        <ele>1230.3</ele>
        <time>2021-06-01T11:52:09Z</time>
      </trkpt>
      <trkpt lat="44.6573" lon="2.92963">
        <ele>1228.7</ele>
        <time>2021-06-01T11:52:39Z</time>
      </trkpt>
      <trkpt lat="44.65696" lon="2.92936">
        <ele>1232</ele>
        <time>2021-06-01T11:53:10Z</time>
      </trkpt>
      <trkpt lat="44.6566" lon="2.92918">
        <ele>1238.4</ele>
        <time>2021-06-01T11:53:40Z</time>
      </trkpt>
      <trkpt lat="44.65608" lon="2.92908">
        <ele>1267.7</ele>
        <time>2021-06-01T11:54:10Z</time>
      </trkpt>
      <trkpt lat="44.65563" lon="2.92921">
        <ele>1287.2</ele>
        <time>2021-06-01T11:54:40Z</time>
      </trkpt>
      <trkpt lat="44.65528" lon="2.92935">
        <ele>1289.7</ele>
        <time>2021-06-01T11:55:10Z</time>
      </trkpt>
      <trkpt lat="44.65489" lon="2.92943">
        <ele>1291</ele>
        <time>2021-06-01T11:55:41Z</time>
      </trkpt>
      <trkpt lat="44.65454" lon="2.92919">
        <ele>1290.8</ele>
        <time>2021-06-01T11:56:11Z</time>
      </trkpt>
      <trkpt lat="44.65438" lon="2.92872">
        <ele>1289.9</ele>
        <time>2021-06-01T11:56:41Z</time>
      </trkpt>
      <trkpt lat="44.65441" lon="2.92816">
        <ele>1288.3</ele>
        <time>2021-06-01T11:57:12Z</time>
      </trkpt>
      <trkpt lat="44.6544" lon="2.92765">
        <ele>1291.2</ele>
        <time>2021-06-01T11:57:42Z</time>
      </trkpt>
      <trkpt lat="44.65445" lon="2.92752">
        <ele>1294.7</ele>
        <time>2021-06-01T11:58:12Z</time>
      </trkpt>
      <trkpt lat="44.65445" lon="2.92752">
        <ele>1294.5</ele>
        <time>2021-06-01T11:59:47Z</time>
      </trkpt>
      <trkpt lat="44.65445" lon="2.92752">
        <ele>1294.3</ele>
        <time>2021-06-01T12:00:18Z</time>
      </trkpt>
      <trkpt lat="44.65458" lon="2.92725">
        <ele>1296</ele>
        <time>2021-06-01T12:00:49Z</time>
      </trkpt>
      <trkpt lat="44.65466" lon="2.92703">
        <ele>1293.8</ele>
        <time>2021-06-01T12:01:20Z</time>
      </trkpt>
      <trkpt lat="44.65472" lon="2.92691">
        <ele>1293.4</ele>
        <time>2021-06-01T12:01:54Z</time>
      </trkpt>
      <trkpt lat="44.65492" lon="2.92642">
        <ele>1292</ele>
        <time>2021-06-01T12:02:25Z</time>
      </trkpt>
      <trkpt lat="44.65514" lon="2.92599">
        <ele>1287.2</ele>
        <time>2021-06-01T12:02:55Z</time>
      </trkpt>
      <trkpt lat="44.65533" lon="2.9255">
        <ele>1282.9</ele>
        <time>2021-06-01T12:03:26Z</time>
      </trkpt>
      <trkpt lat="44.65552" lon="2.92507">
        <ele>1282</ele>
        <time>2021-06-01T12:03:56Z</time>
      </trkpt>
      <trkpt lat="44.6557" lon="2.92459">
        <ele>1278.5</ele>
        <time>2021-06-01T12:04:26Z</time>
      </trkpt>
      <trkpt lat="44.65591" lon="2.92417">
        <ele>1279.5</ele>
        <time>2021-06-01T12:04:57Z</time>
      </trkpt>
      <trkpt lat="44.65595" lon="2.92404">
        <ele>1280.1</ele>
        <time>2021-06-01T12:05:40Z</time>
      </trkpt>
      <trkpt lat="44.65616" lon="2.92359">
        <ele>1276.8</ele>
        <time>2021-06-01T12:06:11Z</time>
      </trkpt>
      <trkpt lat="44.65639" lon="2.9232">
        <ele>1276.2</ele>
        <time>2021-06-01T12:06:41Z</time>
      </trkpt>
      <trkpt lat="44.65676" lon="2.92301">
        <ele>1276.7</ele>
        <time>2021-06-01T12:07:12Z</time>
      </trkpt>
      <trkpt lat="44.65713" lon="2.9228">
        <ele>1277.7</ele>
        <time>2021-06-01T12:07:43Z</time>
      </trkpt>
      <trkpt lat="44.65747" lon="2.92254">
        <ele>1275.4</ele>
        <time>2021-06-01T12:08:13Z</time>
      </trkpt>
      <trkpt lat="44.65769" lon="2.92207">
        <ele>1273.6</ele>
        <time>2021-06-01T12:08:44Z</time>
      </trkpt>
      <trkpt lat="44.65794" lon="2.92165">
        <ele>1270.5</ele>
        <time>2021-06-01T12:09:14Z</time>
      </trkpt>
      <trkpt lat="44.65818" lon="2.92126">
        <ele>1265.7</ele>
        <time>2021-06-01T12:09:45Z</time>
      </trkpt>
      <trkpt lat="44.65838" lon="2.92085">
        <ele>1261</ele>
        <time>2021-06-01T12:10:15Z</time>
      </trkpt>
      <trkpt lat="44.65859" lon="2.92034">
        <ele>1258.1</ele>
        <time>2021-06-01T12:10:45Z</time>
      </trkpt>
      <trkpt lat="44.65883" lon="2.91998">
        <ele>1253.9</ele>
        <time>2021-06-01T12:11:16Z</time>
      </trkpt>
      <trkpt lat="44.65912" lon="2.91972">
        <ele>1249.5</ele>
        <time>2021-06-01T12:11:46Z</time>
      </trkpt>
      <trkpt lat="44.65946" lon="2.91936">
        <ele>1247.8</ele>
        <time>2021-06-01T12:12:17Z</time>
      </trkpt>
      <trkpt lat="44.65973" lon="2.91906">
        <ele>1254.4</ele>
        <time>2021-06-01T12:12:47Z</time>
      </trkpt>
      <trkpt lat="44.65979" lon="2.91895">
        <ele>1263.5</ele>
        <time>2021-06-01T12:13:20Z</time>
      </trkpt>
      <trkpt lat="44.65977" lon="2.91864">
        <ele>1264.6</ele>
        <time>2021-06-01T12:13:51Z</time>
      </trkpt>
      <trkpt lat="44.65961" lon="2.91816">
        <ele>1261.5</ele>
        <time>2021-06-01T12:14:21Z</time>
      </trkpt>
      <trkpt lat="44.65952" lon="2.91759">
        <ele>1252.7</ele>
        <time>2021-06-01T12:14:52Z</time>
      </trkpt>
      <trkpt lat="44.65955" lon="2.91771">
        <ele>1254.3</ele>
        <time>2021-06-01T12:15:33Z</time>
      </trkpt>
      <trkpt lat="44.65963" lon="2.91765">
        <ele>1253.7</ele>
        <time>2021-06-01T12:16:07Z</time>
      </trkpt>
      <trkpt lat="44.65996" lon="2.91777">
        <ele>1259.2</ele>
        <time>2021-06-01T12:16:38Z</time>
      </trkpt>
      <trkpt lat="44.66008" lon="2.91776">
        <ele>1259.4</ele>
        <time>2021-06-01T12:17:09Z</time>
      </trkpt>
      <trkpt lat="44.66011" lon="2.91778">
        <ele>1259.9</ele>
        <time>2021-06-01T12:17:48Z</time>
      </trkpt>
      <trkpt lat="44.66011" lon="2.91778">
        <ele>1260.7</ele>
        <time>2021-06-01T12:18:19Z</time>
      </trkpt>
      <trkpt lat="44.66018" lon="2.91784">
        <ele>1260.8</ele>
        <time>2021-06-01T12:18:50Z</time>
      </trkpt>
      <trkpt lat="44.66035" lon="2.91798">
        <ele>1259.7</ele>
        <time>2021-06-01T12:19:20Z</time>
      </trkpt>
      <trkpt lat="44.66062" lon="2.91833">
        <ele>1260.5</ele>
        <time>2021-06-01T12:19:50Z</time>
      </trkpt>
      <trkpt lat="44.66073" lon="2.91857">
        <ele>1258</ele>
        <time>2021-06-01T12:20:21Z</time>
      </trkpt>
      <trkpt lat="44.66116" lon="2.9185">
        <ele>1258.9</ele>
        <time>2021-06-01T12:20:51Z</time>
      </trkpt>
      <trkpt lat="44.66148" lon="2.91837">
        <ele>1250.6</ele>
        <time>2021-06-01T12:21:22Z</time>
      </trkpt>
      <trkpt lat="44.66183" lon="2.91837">
        <ele>1250.2</ele>
        <time>2021-06-01T12:21:52Z</time>
      </trkpt>
      <trkpt lat="44.66212" lon="2.91811">
        <ele>1250.2</ele>
        <time>2021-06-01T12:22:23Z</time>
      </trkpt>
      <trkpt lat="44.66235" lon="2.91773">
        <ele>1250.6</ele>
        <time>2021-06-01T12:22:53Z</time>
      </trkpt>
      <trkpt lat="44.66272" lon="2.91737">
        <ele>1250.9</ele>
        <time>2021-06-01T12:23:24Z</time>
      </trkpt>
      <trkpt lat="44.66304" lon="2.91732">
        <ele>1253.1</ele>
        <time>2021-06-01T12:23:55Z</time>
      </trkpt>
      <trkpt lat="44.66335" lon="2.91713">
        <ele>1257.5</ele>
        <time>2021-06-01T12:24:25Z</time>
      </trkpt>
      <trkpt lat="44.66371" lon="2.91698">
        <ele>1262.3</ele>
        <time>2021-06-01T12:24:56Z</time>
      </trkpt>
      <trkpt lat="44.66401" lon="2.91664">
        <ele>1266.4</ele>
        <time>2021-06-01T12:25:26Z</time>
      </trkpt>
      <trkpt lat="44.66414" lon="2.91616">
        <ele>1266</ele>
        <time>2021-06-01T12:25:57Z</time>
      </trkpt>
      <trkpt lat="44.66422" lon="2.91608">
        <ele>1265.6</ele>
        <time>2021-06-01T12:26:39Z</time>
      </trkpt>
      <trkpt lat="44.66443" lon="2.91593">
        <ele>1268.9</ele>
        <time>2021-06-01T12:27:10Z</time>
      </trkpt>
      <trkpt lat="44.6648" lon="2.91566">
        <ele>1269.5</ele>
        <time>2021-06-01T12:27:40Z</time>
      </trkpt>
      <trkpt lat="44.66505" lon="2.91524">
        <ele>1266.2</ele>
        <time>2021-06-01T12:28:11Z</time>
      </trkpt>
      <trkpt lat="44.6653" lon="2.91481">
        <ele>1261.1</ele>
        <time>2021-06-01T12:28:41Z</time>
      </trkpt>
      <trkpt lat="44.66552" lon="2.91448">
        <ele>1260.6</ele>
        <time>2021-06-01T12:29:11Z</time>
      </trkpt>
      <trkpt lat="44.6657" lon="2.91427">
        <ele>1264.2</ele>
        <time>2021-06-01T12:29:42Z</time>
      </trkpt>
      <trkpt lat="44.66568" lon="2.91415">
        <ele>1265.5</ele>
        <time>2021-06-01T12:32:23Z</time>
      </trkpt>
      <trkpt lat="44.66582" lon="2.91367">
        <ele>1261.9</ele>
        <time>2021-06-01T12:32:54Z</time>
      </trkpt>
      <trkpt lat="44.66595" lon="2.91328">
        <ele>1257.6</ele>
        <time>2021-06-01T12:33:24Z</time>
      </trkpt>
      <trkpt lat="44.66609" lon="2.91277">
        <ele>1254.8</ele>
        <time>2021-06-01T12:33:55Z</time>
      </trkpt>
      <trkpt lat="44.66622" lon="2.91232">
        <ele>1251.2</ele>
        <time>2021-06-01T12:34:25Z</time>
      </trkpt>
      <trkpt lat="44.66635" lon="2.91187">
        <ele>1248.1</ele>
        <time>2021-06-01T12:34:56Z</time>
      </trkpt>
      <trkpt lat="44.66652" lon="2.91133">
        <ele>1251.1</ele>
        <time>2021-06-01T12:35:26Z</time>
      </trkpt>
      <trkpt lat="44.66669" lon="2.91078">
        <ele>1253.8</ele>
        <time>2021-06-01T12:35:56Z</time>
      </trkpt>
      <trkpt lat="44.6668" lon="2.91032">
        <ele>1252.2</ele>
        <time>2021-06-01T12:36:27Z</time>
      </trkpt>
      <trkpt lat="44.66685" lon="2.90979">
        <ele>1257.1</ele>
        <time>2021-06-01T12:36:57Z</time>
      </trkpt>
      <trkpt lat="44.66685" lon="2.90925">
        <ele>1261.8</ele>
        <time>2021-06-01T12:37:27Z</time>
      </trkpt>
      <trkpt lat="44.66685" lon="2.90872">
        <ele>1256.4</ele>
        <time>2021-06-01T12:37:58Z</time>
      </trkpt>
      <trkpt lat="44.66688" lon="2.90823">
        <ele>1252</ele>
        <time>2021-06-01T12:38:28Z</time>
      </trkpt>
      <trkpt lat="44.66695" lon="2.90773">
        <ele>1244.5</ele>
        <time>2021-06-01T12:38:59Z</time>
      </trkpt>
      <trkpt lat="44.66701" lon="2.90738">
        <ele>1239.3</ele>
        <time>2021-06-01T12:39:29Z</time>
      </trkpt>
      <trkpt lat="44.66714" lon="2.90687">
        <ele>1234.5</ele>
        <time>2021-06-01T12:40:00Z</time>
      </trkpt>
      <trkpt lat="44.66729" lon="2.90636">
        <ele>1231.2</ele>
        <time>2021-06-01T12:40:31Z</time>
      </trkpt>
      <trkpt lat="44.66745" lon="2.90587">
        <ele>1225.7</ele>
        <time>2021-06-01T12:41:02Z</time>
      </trkpt>
      <trkpt lat="44.66767" lon="2.90539">
        <ele>1224</ele>
        <time>2021-06-01T12:41:33Z</time>
      </trkpt>
      <trkpt lat="44.66795" lon="2.90498">
        <ele>1223.1</ele>
        <time>2021-06-01T12:42:04Z</time>
      </trkpt>
      <trkpt lat="44.66817" lon="2.90451">
        <ele>1219.7</ele>
        <time>2021-06-01T12:42:35Z</time>
      </trkpt>
      <trkpt lat="44.66839" lon="2.90408">
        <ele>1216.3</ele>
        <time>2021-06-01T12:43:05Z</time>
      </trkpt>
      <trkpt lat="44.66864" lon="2.90369">
        <ele>1212.2</ele>
        <time>2021-06-01T12:43:36Z</time>
      </trkpt>
      <trkpt lat="44.6689" lon="2.90331">
        <ele>1207.1</ele>
        <time>2021-06-01T12:44:06Z</time>
      </trkpt>
      <trkpt lat="44.66919" lon="2.90292">
        <ele>1206.9</ele>
        <time>2021-06-01T12:44:37Z</time>
      </trkpt>
      <trkpt lat="44.66943" lon="2.90249">
        <ele>1205.2</ele>
        <time>2021-06-01T12:45:08Z</time>
      </trkpt>
      <trkpt lat="44.66951" lon="2.90205">
        <ele>1202.6</ele>
        <time>2021-06-01T12:45:38Z</time>
      </trkpt>
      <trkpt lat="44.66971" lon="2.90168">
        <ele>1197.3</ele>
        <time>2021-06-01T12:46:09Z</time>
      </trkpt>
      <trkpt lat="44.66992" lon="2.90133">
        <ele>1188.2</ele>
        <time>2021-06-01T12:46:40Z</time>
      </trkpt>
      <trkpt lat="44.67004" lon="2.90098">
        <ele>1179.9</ele>
        <time>2021-06-01T12:47:10Z</time>
      </trkpt>
      <trkpt lat="44.67022" lon="2.9006">
        <ele>1172.6</ele>
        <time>2021-06-01T12:47:41Z</time>
      </trkpt>
      <trkpt lat="44.67035" lon="2.90029">
        <ele>1170.6</ele>
        <time>2021-06-01T12:48:12Z</time>
      </trkpt>
      <trkpt lat="44.67036" lon="2.90024">
        <ele>1172.5</ele>
        <time>2021-06-01T12:48:42Z</time>
      </trkpt>
      <trkpt lat="44.67048" lon="2.89997">
        <ele>1172.9</ele>
        <time>2021-06-01T12:49:13Z</time>
      </trkpt>
      <trkpt lat="44.67061" lon="2.89952">
        <ele>1164.8</ele>
        <time>2021-06-01T12:49:44Z</time>
      </trkpt>
      <trkpt lat="44.67077" lon="2.89907">
        <ele>1159</ele>
        <time>2021-06-01T12:50:14Z</time>
      </trkpt>
      <trkpt lat="44.67097" lon="2.89862">
        <ele>1158.8</ele>
        <time>2021-06-01T12:50:45Z</time>
      </trkpt>
      <trkpt lat="44.67121" lon="2.89825">
        <ele>1162</ele>
        <time>2021-06-01T12:51:15Z</time>
      </trkpt>
      <trkpt lat="44.67146" lon="2.89785">
        <ele>1164.9</ele>
        <time>2021-06-01T12:51:46Z</time>
      </trkpt>
      <trkpt lat="44.67171" lon="2.89745">
        <ele>1168</ele>
        <time>2021-06-01T12:52:17Z</time>
      </trkpt>
      <trkpt lat="44.67194" lon="2.89701">
        <ele>1167.7</ele>
        <time>2021-06-01T12:52:47Z</time>
      </trkpt>
      <trkpt lat="44.67211" lon="2.8965">
        <ele>1165.1</ele>
        <time>2021-06-01T12:53:18Z</time>
      </trkpt>
      <trkpt lat="44.67224" lon="2.89605">
        <ele>1160.3</ele>
        <time>2021-06-01T12:53:48Z</time>
      </trkpt>
      <trkpt lat="44.67238" lon="2.89561">
        <ele>1156</ele>
        <time>2021-06-01T12:54:19Z</time>
      </trkpt>
      <trkpt lat="44.67232" lon="2.89514">
        <ele>1155.6</ele>
        <time>2021-06-01T12:54:50Z</time>
      </trkpt>
      <trkpt lat="44.67209" lon="2.89484">
        <ele>1148.4</ele>
        <time>2021-06-01T12:55:21Z</time>
      </trkpt>
      <trkpt lat="44.67191" lon="2.89458">
        <ele>1143.2</ele>
        <time>2021-06-01T12:55:51Z</time>
      </trkpt>
      <trkpt lat="44.67167" lon="2.89452">
        <ele>1135.2</ele>
        <time>2021-06-01T12:56:22Z</time>
      </trkpt>
      <trkpt lat="44.67139" lon="2.89437">
        <ele>1128.4</ele>
        <time>2021-06-01T12:56:53Z</time>
      </trkpt>
      <trkpt lat="44.67117" lon="2.89406">
        <ele>1124</ele>
        <time>2021-06-01T12:57:23Z</time>
      </trkpt>
      <trkpt lat="44.67093" lon="2.89364">
        <ele>1119.8</ele>
        <time>2021-06-01T12:57:53Z</time>
      </trkpt>
      <trkpt lat="44.67087" lon="2.89354">
        <ele>1119.9</ele>
        <time>2021-06-01T12:58:36Z</time>
      </trkpt>
      <trkpt lat="44.67086" lon="2.89348">
        <ele>1119.1</ele>
        <time>2021-06-01T12:59:07Z</time>
      </trkpt>
      <trkpt lat="44.67086" lon="2.89348">
        <ele>1119.6</ele>
        <time>2021-06-01T12:59:37Z</time>
      </trkpt>
      <trkpt lat="44.67086" lon="2.89348">
        <ele>1119.4</ele>
        <time>2021-06-01T13:00:08Z</time>
      </trkpt>
      <trkpt lat="44.67081" lon="2.89337">
        <ele>1121.2</ele>
        <time>2021-06-01T13:00:39Z</time>
      </trkpt>
      <trkpt lat="44.67079" lon="2.89333">
        <ele>1120.5</ele>
        <time>2021-06-01T13:01:09Z</time>
      </trkpt>
      <trkpt lat="44.67069" lon="2.89297">
        <ele>1121.7</ele>
        <time>2021-06-01T13:01:40Z</time>
      </trkpt>
      <trkpt lat="44.67062" lon="2.89276">
        <ele>1120.6</ele>
        <time>2021-06-01T13:02:10Z</time>
      </trkpt>
      <trkpt lat="44.67057" lon="2.89259">
        <ele>1120.1</ele>
        <time>2021-06-01T13:02:41Z</time>
      </trkpt>
      <trkpt lat="44.67052" lon="2.89236">
        <ele>1121.9</ele>
        <time>2021-06-01T13:03:12Z</time>
      </trkpt>
      <trkpt lat="44.67049" lon="2.89211">
        <ele>1122</ele>
        <time>2021-06-01T13:03:43Z</time>
      </trkpt>
      <trkpt lat="44.67046" lon="2.89186">
        <ele>1121.7</ele>
        <time>2021-06-01T13:04:13Z</time>
      </trkpt>
      <trkpt lat="44.67046" lon="2.89147">
        <ele>1121.9</ele>
        <time>2021-06-01T13:04:45Z</time>
      </trkpt>
      <trkpt lat="44.67048" lon="2.8913">
        <ele>1121.8</ele>
        <time>2021-06-01T13:05:15Z</time>
      </trkpt>
      <trkpt lat="44.67046" lon="2.89117">
        <ele>1120.1</ele>
        <time>2021-06-01T13:05:53Z</time>
      </trkpt>
      <trkpt lat="44.67038" lon="2.89069">
        <ele>1119.3</ele>
        <time>2021-06-01T13:06:23Z</time>
      </trkpt>
      <trkpt lat="44.67036" lon="2.89032">
        <ele>1118.4</ele>
        <time>2021-06-01T13:06:53Z</time>
      </trkpt>
      <trkpt lat="44.67035" lon="2.89019">
        <ele>1117.6</ele>
        <time>2021-06-01T13:09:32Z</time>
      </trkpt>
      <trkpt lat="44.67034" lon="2.89006">
        <ele>1117.9</ele>
        <time>2021-06-01T13:10:49Z</time>
      </trkpt>
      <trkpt lat="44.67034" lon="2.88979">
        <ele>1116.1</ele>
        <time>2021-06-01T13:11:20Z</time>
      </trkpt>
      <trkpt lat="44.67034" lon="2.88966">
        <ele>1115.8</ele>
        <time>2021-06-01T13:12:09Z</time>
      </trkpt>
      <trkpt lat="44.6703" lon="2.88915">
        <ele>1115.6</ele>
        <time>2021-06-01T13:12:39Z</time>
      </trkpt>
      <trkpt lat="44.67028" lon="2.88877">
        <ele>1110.3</ele>
        <time>2021-06-01T13:13:09Z</time>
      </trkpt>
      <trkpt lat="44.67026" lon="2.88846">
        <ele>1109</ele>
        <time>2021-06-01T13:13:39Z</time>
      </trkpt>
      <trkpt lat="44.67027" lon="2.88812">
        <ele>1103.9</ele>
        <time>2021-06-01T13:14:10Z</time>
      </trkpt>
      <trkpt lat="44.67025" lon="2.88771">
        <ele>1098.3</ele>
        <time>2021-06-01T13:14:40Z</time>
      </trkpt>
      <trkpt lat="44.67023" lon="2.88728">
        <ele>1093.2</ele>
        <time>2021-06-01T13:15:12Z</time>
      </trkpt>
      <trkpt lat="44.67022" lon="2.88694">
        <ele>1092.4</ele>
        <time>2021-06-01T13:15:42Z</time>
      </trkpt>
      <trkpt lat="44.67022" lon="2.88638">
        <ele>1087.4</ele>
        <time>2021-06-01T13:16:13Z</time>
      </trkpt>
      <trkpt lat="44.67022" lon="2.8858">
        <ele>1083.6</ele>
        <time>2021-06-01T13:16:44Z</time>
      </trkpt>
      <trkpt lat="44.67023" lon="2.88522">
        <ele>1078.6</ele>
        <time>2021-06-01T13:17:15Z</time>
      </trkpt>
      <trkpt lat="44.67029" lon="2.88466">
        <ele>1070.1</ele>
        <time>2021-06-01T13:17:45Z</time>
      </trkpt>
      <trkpt lat="44.6703" lon="2.88413">
        <ele>1067.2</ele>
        <time>2021-06-01T13:18:16Z</time>
      </trkpt>
      <trkpt lat="44.6704" lon="2.8836">
        <ele>1061.1</ele>
        <time>2021-06-01T13:18:46Z</time>
      </trkpt>
      <trkpt lat="44.67038" lon="2.88305">
        <ele>1055.1</ele>
        <time>2021-06-01T13:19:17Z</time>
      </trkpt>
      <trkpt lat="44.67041" lon="2.88246">
        <ele>1058.3</ele>
        <time>2021-06-01T13:19:48Z</time>
      </trkpt>
      <trkpt lat="44.67034" lon="2.88188">
        <ele>1054.8</ele>
        <time>2021-06-01T13:20:18Z</time>
      </trkpt>
      <trkpt lat="44.67032" lon="2.88128">
        <ele>1049.2</ele>
        <time>2021-06-01T13:20:48Z</time>
      </trkpt>
      <trkpt lat="44.67033" lon="2.88065">
        <ele>1050.2</ele>
        <time>2021-06-01T13:21:18Z</time>
      </trkpt>
      <trkpt lat="44.6702" lon="2.88009">
        <ele>1045</ele>
        <time>2021-06-01T13:21:49Z</time>
      </trkpt>
      <trkpt lat="44.67011" lon="2.87949">
        <ele>1041.7</ele>
        <time>2021-06-01T13:22:20Z</time>
      </trkpt>
      <trkpt lat="44.67" lon="2.87886">
        <ele>1043.6</ele>
        <time>2021-06-01T13:22:50Z</time>
      </trkpt>
      <trkpt lat="44.66993" lon="2.8783">
        <ele>1047.4</ele>
        <time>2021-06-01T13:23:21Z</time>
      </trkpt>
      <trkpt lat="44.66982" lon="2.87775">
        <ele>1044.1</ele>
        <time>2021-06-01T13:23:51Z</time>
      </trkpt>
      <trkpt lat="44.66972" lon="2.87716">
        <ele>1033.2</ele>
        <time>2021-06-01T13:24:22Z</time>
      </trkpt>
      <trkpt lat="44.66975" lon="2.8768">
        <ele>1030.2</ele>
        <time>2021-06-01T13:24:52Z</time>
      </trkpt>
      <trkpt lat="44.6696" lon="2.87662">
        <ele>1057.1</ele>
        <time>2021-06-01T13:38:41Z</time>
      </trkpt>
      <trkpt lat="44.6696" lon="2.87645">
        <ele>1038.4</ele>
        <time>2021-06-01T13:39:12Z</time>
      </trkpt>
      <trkpt lat="44.66952" lon="2.87582">
        <ele>1037.7</ele>
        <time>2021-06-01T13:39:43Z</time>
      </trkpt>
      <trkpt lat="44.66949" lon="2.87524">
        <ele>1034.3</ele>
        <time>2021-06-01T13:40:14Z</time>
      </trkpt>
      <trkpt lat="44.66941" lon="2.87466">
        <ele>1029.2</ele>
        <time>2021-06-01T13:40:45Z</time>
      </trkpt>
      <trkpt lat="44.66935" lon="2.87422">
        <ele>1025.7</ele>
        <time>2021-06-01T13:41:15Z</time>
      </trkpt>
      <trkpt lat="44.66934" lon="2.87409">
        <ele>1027</ele>
        <time>2021-06-01T13:42:08Z</time>
      </trkpt>
      <trkpt lat="44.66923" lon="2.87358">
        <ele>1023.5</ele>
        <time>2021-06-01T13:42:39Z</time>
      </trkpt>
      <trkpt lat="44.66909" lon="2.87303">
        <ele>1020.5</ele>
        <time>2021-06-01T13:43:09Z</time>
      </trkpt>
      <trkpt lat="44.66897" lon="2.87248">
        <ele>1020.1</ele>
        <time>2021-06-01T13:43:40Z</time>
      </trkpt>
      <trkpt lat="44.66888" lon="2.87189">
        <ele>1022.6</ele>
        <time>2021-06-01T13:44:11Z</time>
      </trkpt>
      <trkpt lat="44.66893" lon="2.87133">
        <ele>1022.8</ele>
        <time>2021-06-01T13:44:41Z</time>
      </trkpt>
      <trkpt lat="44.6691" lon="2.8708">
        <ele>1022.4</ele>
        <time>2021-06-01T13:45:12Z</time>
      </trkpt>
      <trkpt lat="44.66929" lon="2.87031">
        <ele>1022.7</ele>
        <time>2021-06-01T13:45:42Z</time>
      </trkpt>
      <trkpt lat="44.6695" lon="2.86979">
        <ele>1028.3</ele>
        <time>2021-06-01T13:46:13Z</time>
      </trkpt>
      <trkpt lat="44.66971" lon="2.86932">
        <ele>1030.8</ele>
        <time>2021-06-01T13:46:43Z</time>
      </trkpt>
      <trkpt lat="44.66984" lon="2.86874">
        <ele>1033.9</ele>
        <time>2021-06-01T13:47:14Z</time>
      </trkpt>
      <trkpt lat="44.66983" lon="2.86815">
        <ele>1035</ele>
        <time>2021-06-01T13:47:45Z</time>
      </trkpt>
      <trkpt lat="44.66974" lon="2.86768">
        <ele>1037.4</ele>
        <time>2021-06-01T13:48:15Z</time>
      </trkpt>
      <trkpt lat="44.66963" lon="2.86713">
        <ele>1041.1</ele>
        <time>2021-06-01T13:48:46Z</time>
      </trkpt>
      <trkpt lat="44.6695" lon="2.86654">
        <ele>1042.5</ele>
        <time>2021-06-01T13:49:17Z</time>
      </trkpt>
      <trkpt lat="44.66936" lon="2.86599">
        <ele>1043.2</ele>
        <time>2021-06-01T13:49:48Z</time>
      </trkpt>
      <trkpt lat="44.66918" lon="2.86552">
        <ele>1043.9</ele>
        <time>2021-06-01T13:50:19Z</time>
      </trkpt>
      <trkpt lat="44.66903" lon="2.86493">
        <ele>1045.1</ele>
        <time>2021-06-01T13:50:50Z</time>
      </trkpt>
      <trkpt lat="44.66885" lon="2.86439">
        <ele>1039.1</ele>
        <time>2021-06-01T13:51:21Z</time>
      </trkpt>
      <trkpt lat="44.66865" lon="2.86392">
        <ele>1041</ele>
        <time>2021-06-01T13:51:51Z</time>
      </trkpt>
      <trkpt lat="44.6684" lon="2.86339">
        <ele>1043.8</ele>
        <time>2021-06-01T13:52:21Z</time>
      </trkpt>
      <trkpt lat="44.66821" lon="2.86284">
        <ele>1050.3</ele>
        <time>2021-06-01T13:52:52Z</time>
      </trkpt>
      <trkpt lat="44.668" lon="2.8624">
        <ele>1047.6</ele>
        <time>2021-06-01T13:53:22Z</time>
      </trkpt>
      <trkpt lat="44.6678" lon="2.8619">
        <ele>1047.2</ele>
        <time>2021-06-01T13:53:52Z</time>
      </trkpt>
      <trkpt lat="44.66761" lon="2.86136">
        <ele>1047.2</ele>
        <time>2021-06-01T13:54:23Z</time>
      </trkpt>
      <trkpt lat="44.66746" lon="2.86081">
        <ele>1051.4</ele>
        <time>2021-06-01T13:54:54Z</time>
      </trkpt>
      <trkpt lat="44.66735" lon="2.86022">
        <ele>1053.4</ele>
        <time>2021-06-01T13:55:24Z</time>
      </trkpt>
      <trkpt lat="44.66727" lon="2.85965">
        <ele>1050.1</ele>
        <time>2021-06-01T13:55:55Z</time>
      </trkpt>
      <trkpt lat="44.66732" lon="2.85908">
        <ele>1056.7</ele>
        <time>2021-06-01T13:56:26Z</time>
      </trkpt>
      <trkpt lat="44.6675" lon="2.85881">
        <ele>1056.2</ele>
        <time>2021-06-01T13:56:56Z</time>
      </trkpt>
      <trkpt lat="44.66778" lon="2.8584">
        <ele>1054.4</ele>
        <time>2021-06-01T13:57:27Z</time>
      </trkpt>
      <trkpt lat="44.66804" lon="2.85791">
        <ele>1052.1</ele>
        <time>2021-06-01T13:57:57Z</time>
      </trkpt>
      <trkpt lat="44.66828" lon="2.85748">
        <ele>1052.5</ele>
        <time>2021-06-01T13:58:28Z</time>
      </trkpt>
      <trkpt lat="44.66858" lon="2.85705">
        <ele>1053.4</ele>
        <time>2021-06-01T13:58:59Z</time>
      </trkpt>
      <trkpt lat="44.66879" lon="2.85657">
        <ele>1048.2</ele>
        <time>2021-06-01T13:59:29Z</time>
      </trkpt>
      <trkpt lat="44.66894" lon="2.85603">
        <ele>1047.6</ele>
        <time>2021-06-01T14:00:00Z</time>
      </trkpt>
      <trkpt lat="44.66921" lon="2.85559">
        <ele>1041.2</ele>
        <time>2021-06-01T14:00:31Z</time>
      </trkpt>
      <trkpt lat="44.6694" lon="2.8551">
        <ele>1034</ele>
        <time>2021-06-01T14:01:01Z</time>
      </trkpt>
      <trkpt lat="44.66961" lon="2.8546">
        <ele>1030.8</ele>
        <time>2021-06-01T14:01:32Z</time>
      </trkpt>
      <trkpt lat="44.66984" lon="2.85414">
        <ele>1029.5</ele>
        <time>2021-06-01T14:02:02Z</time>
      </trkpt>
      <trkpt lat="44.67006" lon="2.85359">
        <ele>1023.9</ele>
        <time>2021-06-01T14:02:33Z</time>
      </trkpt>
      <trkpt lat="44.67029" lon="2.85309">
        <ele>1023.7</ele>
        <time>2021-06-01T14:03:03Z</time>
      </trkpt>
      <trkpt lat="44.67055" lon="2.85262">
        <ele>1022.4</ele>
        <time>2021-06-01T14:03:34Z</time>
      </trkpt>
      <trkpt lat="44.67079" lon="2.85216">
        <ele>1020.1</ele>
        <time>2021-06-01T14:04:05Z</time>
      </trkpt>
      <trkpt lat="44.67113" lon="2.85172">
        <ele>1015.9</ele>
        <time>2021-06-01T14:04:36Z</time>
      </trkpt>
      <trkpt lat="44.67149" lon="2.85145">
        <ele>1016.8</ele>
        <time>2021-06-01T14:05:06Z</time>
      </trkpt>
      <trkpt lat="44.67183" lon="2.85118">
        <ele>1010.8</ele>
        <time>2021-06-01T14:05:37Z</time>
      </trkpt>
      <trkpt lat="44.67216" lon="2.85094">
        <ele>1005.4</ele>
        <time>2021-06-01T14:06:08Z</time>
      </trkpt>
      <trkpt lat="44.67241" lon="2.85074">
        <ele>1002.1</ele>
        <time>2021-06-01T14:06:39Z</time>
      </trkpt>
      <trkpt lat="44.67264" lon="2.85047">
        <ele>1003.7</ele>
        <time>2021-06-01T14:07:09Z</time>
      </trkpt>
      <trkpt lat="44.67287" lon="2.85017">
        <ele>1003.2</ele>
        <time>2021-06-01T14:07:40Z</time>
      </trkpt>
      <trkpt lat="44.67305" lon="2.84997">
        <ele>1003.5</ele>
        <time>2021-06-01T14:08:10Z</time>
      </trkpt>
      <trkpt lat="44.67334" lon="2.84999">
        <ele>1003.1</ele>
        <time>2021-06-01T14:08:41Z</time>
      </trkpt>
      <trkpt lat="44.67364" lon="2.85016">
        <ele>999.5</ele>
        <time>2021-06-01T14:09:11Z</time>
      </trkpt>
      <trkpt lat="44.67394" lon="2.85035">
        <ele>1000.3</ele>
        <time>2021-06-01T14:09:42Z</time>
      </trkpt>
      <trkpt lat="44.67423" lon="2.8506">
        <ele>996.2</ele>
        <time>2021-06-01T14:10:13Z</time>
      </trkpt>
      <trkpt lat="44.6745" lon="2.85083">
        <ele>993.1</ele>
        <time>2021-06-01T14:10:43Z</time>
      </trkpt>
      <trkpt lat="44.67474" lon="2.85104">
        <ele>992.2</ele>
        <time>2021-06-01T14:11:13Z</time>
      </trkpt>
      <trkpt lat="44.67502" lon="2.85129">
        <ele>991</ele>
        <time>2021-06-01T14:11:43Z</time>
      </trkpt>
      <trkpt lat="44.67528" lon="2.85157">
        <ele>987.4</ele>
        <time>2021-06-01T14:12:13Z</time>
      </trkpt>
      <trkpt lat="44.67551" lon="2.85185">
        <ele>985.9</ele>
        <time>2021-06-01T14:12:44Z</time>
      </trkpt>
      <trkpt lat="44.67573" lon="2.85218">
        <ele>981.5</ele>
        <time>2021-06-01T14:13:15Z</time>
      </trkpt>
      <trkpt lat="44.67594" lon="2.85252">
        <ele>978.9</ele>
        <time>2021-06-01T14:13:45Z</time>
      </trkpt>
      <trkpt lat="44.67589" lon="2.85291">
        <ele>974.4</ele>
        <time>2021-06-01T14:14:15Z</time>
      </trkpt>
      <trkpt lat="44.67573" lon="2.85333">
        <ele>970.8</ele>
        <time>2021-06-01T14:14:45Z</time>
      </trkpt>
      <trkpt lat="44.6756" lon="2.85374">
        <ele>969.4</ele>
        <time>2021-06-01T14:15:16Z</time>
      </trkpt>
      <trkpt lat="44.67555" lon="2.85419">
        <ele>965.4</ele>
        <time>2021-06-01T14:15:46Z</time>
      </trkpt>
      <trkpt lat="44.67574" lon="2.85462">
        <ele>967.8</ele>
        <time>2021-06-01T14:16:17Z</time>
      </trkpt>
      <trkpt lat="44.67593" lon="2.85492">
        <ele>969</ele>
        <time>2021-06-01T14:16:48Z</time>
      </trkpt>
      <trkpt lat="44.67622" lon="2.85502">
        <ele>977.8</ele>
        <time>2021-06-01T14:17:18Z</time>
      </trkpt>
      <trkpt lat="44.67654" lon="2.85495">
        <ele>982.5</ele>
        <time>2021-06-01T14:17:48Z</time>
      </trkpt>
      <trkpt lat="44.67684" lon="2.85483">
        <ele>987.1</ele>
        <time>2021-06-01T14:18:18Z</time>
      </trkpt>
      <trkpt lat="44.67716" lon="2.85478">
        <ele>988.4</ele>
        <time>2021-06-01T14:18:49Z</time>
      </trkpt>
      <trkpt lat="44.67748" lon="2.85478">
        <ele>988.8</ele>
        <time>2021-06-01T14:19:19Z</time>
      </trkpt>
      <trkpt lat="44.67782" lon="2.85469">
        <ele>992.2</ele>
        <time>2021-06-01T14:19:49Z</time>
      </trkpt>
      <trkpt lat="44.67805" lon="2.85434">
        <ele>993.7</ele>
        <time>2021-06-01T14:20:20Z</time>
      </trkpt>
      <trkpt lat="44.67827" lon="2.85399">
        <ele>996.3</ele>
        <time>2021-06-01T14:20:51Z</time>
      </trkpt>
      <trkpt lat="44.67852" lon="2.85368">
        <ele>995.6</ele>
        <time>2021-06-01T14:21:22Z</time>
      </trkpt>
      <trkpt lat="44.67875" lon="2.85331">
        <ele>994.8</ele>
        <time>2021-06-01T14:21:52Z</time>
      </trkpt>
      <trkpt lat="44.67897" lon="2.85295">
        <ele>991.8</ele>
        <time>2021-06-01T14:22:22Z</time>
      </trkpt>
      <trkpt lat="44.6792" lon="2.8526">
        <ele>993.5</ele>
        <time>2021-06-01T14:22:53Z</time>
      </trkpt>
      <trkpt lat="44.67943" lon="2.85227">
        <ele>990.9</ele>
        <time>2021-06-01T14:23:24Z</time>
      </trkpt>
      <trkpt lat="44.6797" lon="2.85196">
        <ele>996.1</ele>
        <time>2021-06-01T14:23:55Z</time>
      </trkpt>
      <trkpt lat="44.68" lon="2.8519">
        <ele>992.8</ele>
        <time>2021-06-01T14:24:25Z</time>
      </trkpt>
      <trkpt lat="44.68026" lon="2.85215">
        <ele>984.3</ele>
        <time>2021-06-01T14:24:56Z</time>
      </trkpt>
      <trkpt lat="44.6805" lon="2.85249">
        <ele>981</ele>
        <time>2021-06-01T14:25:27Z</time>
      </trkpt>
      <trkpt lat="44.68082" lon="2.85245">
        <ele>978.2</ele>
        <time>2021-06-01T14:25:58Z</time>
      </trkpt>
      <trkpt lat="44.68112" lon="2.85225">
        <ele>975.3</ele>
        <time>2021-06-01T14:26:28Z</time>
      </trkpt>
      <trkpt lat="44.68141" lon="2.85201">
        <ele>975.5</ele>
        <time>2021-06-01T14:26:59Z</time>
      </trkpt>
      <trkpt lat="44.68169" lon="2.85183">
        <ele>974.6</ele>
        <time>2021-06-01T14:27:29Z</time>
      </trkpt>
      <trkpt lat="44.68204" lon="2.85185">
        <ele>967.4</ele>
        <time>2021-06-01T14:28:00Z</time>
      </trkpt>
      <trkpt lat="44.68235" lon="2.85178">
        <ele>969.1</ele>
        <time>2021-06-01T14:28:31Z</time>
      </trkpt>
      <trkpt lat="44.68267" lon="2.85155">
        <ele>967.1</ele>
        <time>2021-06-01T14:29:02Z</time>
      </trkpt>
      <trkpt lat="44.68291" lon="2.85126">
        <ele>965.7</ele>
        <time>2021-06-01T14:29:32Z</time>
      </trkpt>
      <trkpt lat="44.68303" lon="2.8509">
        <ele>966.4</ele>
        <time>2021-06-01T14:30:02Z</time>
      </trkpt>
      <trkpt lat="44.68315" lon="2.85061">
        <ele>961.7</ele>
        <time>2021-06-01T14:30:33Z</time>
      </trkpt>
      <trkpt lat="44.68326" lon="2.85022">
        <ele>962.9</ele>
        <time>2021-06-01T14:31:04Z</time>
      </trkpt>
      <trkpt lat="44.68329" lon="2.85017">
        <ele>963</ele>
        <time>2021-06-01T14:31:34Z</time>
      </trkpt>
      <trkpt lat="44.68338" lon="2.84976">
        <ele>962.5</ele>
        <time>2021-06-01T14:32:05Z</time>
      </trkpt>
      <trkpt lat="44.68347" lon="2.84918">
        <ele>961.5</ele>
        <time>2021-06-01T14:32:35Z</time>
      </trkpt>
      <trkpt lat="44.68354" lon="2.8488">
        <ele>954.9</ele>
        <time>2021-06-01T14:33:05Z</time>
      </trkpt>
      <trkpt lat="44.68358" lon="2.84861">
        <ele>954.8</ele>
        <time>2021-06-01T14:33:35Z</time>
      </trkpt>
      <trkpt lat="44.68356" lon="2.84858">
        <ele>953.2</ele>
        <time>2021-06-01T14:34:05Z</time>
      </trkpt>
      <trkpt lat="44.68357" lon="2.84857">
        <ele>953.3</ele>
        <time>2021-06-01T14:34:36Z</time>
      </trkpt>
      <trkpt lat="44.68357" lon="2.84857">
        <ele>952.6</ele>
        <time>2021-06-01T14:35:06Z</time>
      </trkpt>
      <trkpt lat="44.68355" lon="2.84861">
        <ele>951.6</ele>
        <time>2021-06-01T14:35:37Z</time>
      </trkpt>
      <trkpt lat="44.68374" lon="2.84842">
        <ele>956.9</ele>
        <time>2021-06-01T14:36:07Z</time>
      </trkpt>
      <trkpt lat="44.68392" lon="2.84806">
        <ele>956.7</ele>
        <time>2021-06-01T14:36:37Z</time>
      </trkpt>
      <trkpt lat="44.6841" lon="2.84759">
        <ele>958.3</ele>
        <time>2021-06-01T14:37:08Z</time>
      </trkpt>
      <trkpt lat="44.68422" lon="2.84717">
        <ele>957.1</ele>
        <time>2021-06-01T14:37:39Z</time>
      </trkpt>
      <trkpt lat="44.68423" lon="2.84712">
        <ele>960.5</ele>
        <time>2021-06-01T14:38:10Z</time>
      </trkpt>
      <trkpt lat="44.6842" lon="2.84675">
        <ele>958</ele>
        <time>2021-06-01T14:38:41Z</time>
      </trkpt>
      <trkpt lat="44.68411" lon="2.84622">
        <ele>953.8</ele>
        <time>2021-06-01T14:39:12Z</time>
      </trkpt>
      <trkpt lat="44.68405" lon="2.84595">
        <ele>958.4</ele>
        <time>2021-06-01T14:39:42Z</time>
      </trkpt>
      <trkpt lat="44.6841" lon="2.84582">
        <ele>957.2</ele>
        <time>2021-06-01T14:40:13Z</time>
      </trkpt>
      <trkpt lat="44.68409" lon="2.84579">
        <ele>953.9</ele>
        <time>2021-06-01T14:40:43Z</time>
      </trkpt>
    </trkseg>
  </trk>
</gpx>